<?xml version="1.0" encoding="UTF-8" standalone="no" ?>
<gpx xmlns="http://www.topografix.com/GPX/1/1" xmlns:xsi="http://www.w3.org/2001/XMLSchema-instance" xsi:schemaLocation="http://www.topografix.com/GPX/1/1 http://www.topografix.com/GPX/1/1/gpx.xsd" version="1.1" creator="VisuGPX - https://www.visugpx.com">
  <metadata>
    <name>barbizon31</name>
    <desc><![CDATA[tout passe à vélo !

départ du bas bréau]]></desc>
  </metadata>
  <trk>
    <name><![CDATA[--Barbizon-- OR-2286415:barbizon 31 bis]]></name>
    <trkseg>
      <trkpt lat="48.44046" lon="2.62441">
        <ele>94</ele>
        <time>2015-12-16T07:36:38Z</time>
      </trkpt>
      <trkpt lat="48.44047" lon="2.62441">
        <ele>94</ele>
        <time>2015-12-16T07:38:38Z</time>
      </trkpt>
      <trkpt lat="48.44038" lon="2.62438">
        <ele>95</ele>
        <time>2015-12-16T07:40:38Z</time>
      </trkpt>
      <trkpt lat="48.44032" lon="2.62446">
        <ele>95</ele>
        <time>2015-12-16T07:42:38Z</time>
      </trkpt>
      <trkpt lat="48.44013" lon="2.62444">
        <ele>96</ele>
        <time>2015-12-16T07:44:38Z</time>
      </trkpt>
      <trkpt lat="48.44006" lon="2.62441">
        <ele>96</ele>
        <time>2015-12-16T07:46:38Z</time>
      </trkpt>
      <trkpt lat="48.4399" lon="2.62436">
        <ele>97</ele>
        <time>2015-12-16T07:48:38Z</time>
      </trkpt>
      <trkpt lat="48.43973" lon="2.62432">
        <ele>96</ele>
        <time>2015-12-16T07:50:38Z</time>
      </trkpt>
      <trkpt lat="48.43959" lon="2.62431">
        <ele>96</ele>
        <time>2015-12-16T07:52:38Z</time>
      </trkpt>
      <trkpt lat="48.43916" lon="2.62423">
        <ele>95</ele>
        <time>2015-12-16T07:54:38Z</time>
      </trkpt>
      <trkpt lat="48.43894" lon="2.62422">
        <ele>95</ele>
        <time>2015-12-16T07:56:38Z</time>
      </trkpt>
      <trkpt lat="48.43844" lon="2.62415">
        <ele>95</ele>
        <time>2015-12-16T07:58:38Z</time>
      </trkpt>
      <trkpt lat="48.43823" lon="2.6241">
        <ele>95</ele>
        <time>2015-12-16T08:00:38Z</time>
      </trkpt>
      <trkpt lat="48.43805" lon="2.62405">
        <ele>95</ele>
        <time>2015-12-16T08:02:38Z</time>
      </trkpt>
      <trkpt lat="48.43809" lon="2.62406">
        <ele>95</ele>
        <time>2015-12-16T08:04:38Z</time>
      </trkpt>
      <trkpt lat="48.43803" lon="2.62404">
        <ele>95</ele>
        <time>2015-12-16T08:06:38Z</time>
      </trkpt>
      <trkpt lat="48.43787" lon="2.62402">
        <ele>96</ele>
        <time>2015-12-16T08:08:38Z</time>
      </trkpt>
      <trkpt lat="48.43728" lon="2.62403">
        <ele>97</ele>
        <time>2015-12-16T08:10:38Z</time>
      </trkpt>
      <trkpt lat="48.43719" lon="2.62404">
        <ele>97</ele>
        <time>2015-12-16T08:12:38Z</time>
      </trkpt>
      <trkpt lat="48.4369" lon="2.62411">
        <ele>97</ele>
        <time>2015-12-16T08:14:38Z</time>
      </trkpt>
      <trkpt lat="48.43664" lon="2.62416">
        <ele>98</ele>
        <time>2015-12-16T08:16:38Z</time>
      </trkpt>
      <trkpt lat="48.43641" lon="2.62417">
        <ele>98</ele>
        <time>2015-12-16T08:18:38Z</time>
      </trkpt>
      <trkpt lat="48.43619" lon="2.62423">
        <ele>99</ele>
        <time>2015-12-16T08:20:38Z</time>
      </trkpt>
      <trkpt lat="48.43589" lon="2.62425">
        <ele>99</ele>
        <time>2015-12-16T08:22:38Z</time>
      </trkpt>
      <trkpt lat="48.43538" lon="2.62432">
        <ele>99</ele>
        <time>2015-12-16T08:24:38Z</time>
      </trkpt>
      <trkpt lat="48.43514" lon="2.62433">
        <ele>99</ele>
        <time>2015-12-16T08:26:38Z</time>
      </trkpt>
      <trkpt lat="48.43495" lon="2.62432">
        <ele>99</ele>
        <time>2015-12-16T08:28:38Z</time>
      </trkpt>
      <trkpt lat="48.43474" lon="2.62429">
        <ele>101</ele>
        <time>2015-12-16T08:30:38Z</time>
      </trkpt>
      <trkpt lat="48.43458" lon="2.62424">
        <ele>102</ele>
        <time>2015-12-16T08:32:38Z</time>
      </trkpt>
      <trkpt lat="48.43427" lon="2.62412">
        <ele>104</ele>
        <time>2015-12-16T08:34:38Z</time>
      </trkpt>
      <trkpt lat="48.43389" lon="2.62404">
        <ele>109</ele>
        <time>2015-12-16T08:36:38Z</time>
      </trkpt>
      <trkpt lat="48.43368" lon="2.62405">
        <ele>112</ele>
        <time>2015-12-16T08:38:38Z</time>
      </trkpt>
      <trkpt lat="48.43357" lon="2.62406">
        <ele>114</ele>
        <time>2015-12-16T08:40:38Z</time>
      </trkpt>
      <trkpt lat="48.43345" lon="2.62408">
        <ele>116</ele>
        <time>2015-12-16T08:42:38Z</time>
      </trkpt>
      <trkpt lat="48.43332" lon="2.62413">
        <ele>117</ele>
        <time>2015-12-16T08:44:38Z</time>
      </trkpt>
      <trkpt lat="48.43322" lon="2.6242">
        <ele>119</ele>
        <time>2015-12-16T08:46:38Z</time>
      </trkpt>
      <trkpt lat="48.43309" lon="2.62422">
        <ele>121</ele>
        <time>2015-12-16T08:48:38Z</time>
      </trkpt>
      <trkpt lat="48.43294" lon="2.62421">
        <ele>123</ele>
        <time>2015-12-16T08:50:38Z</time>
      </trkpt>
      <trkpt lat="48.43285" lon="2.62417">
        <ele>125</ele>
        <time>2015-12-16T08:52:38Z</time>
      </trkpt>
      <trkpt lat="48.43262" lon="2.62395">
        <ele>128</ele>
        <time>2015-12-16T08:54:38Z</time>
      </trkpt>
      <trkpt lat="48.43251" lon="2.62381">
        <ele>130</ele>
        <time>2015-12-16T08:56:38Z</time>
      </trkpt>
      <trkpt lat="48.43241" lon="2.62365">
        <ele>131</ele>
        <time>2015-12-16T08:58:38Z</time>
      </trkpt>
      <trkpt lat="48.43232" lon="2.62349">
        <ele>132</ele>
        <time>2015-12-16T09:00:38Z</time>
      </trkpt>
      <trkpt lat="48.43214" lon="2.62312">
        <ele>134</ele>
        <time>2015-12-16T09:02:38Z</time>
      </trkpt>
      <trkpt lat="48.43204" lon="2.62299">
        <ele>135</ele>
        <time>2015-12-16T09:04:38Z</time>
      </trkpt>
      <trkpt lat="48.43194" lon="2.62288">
        <ele>135</ele>
        <time>2015-12-16T09:06:38Z</time>
      </trkpt>
      <trkpt lat="48.43184" lon="2.62279">
        <ele>136</ele>
        <time>2015-12-16T09:08:38Z</time>
      </trkpt>
      <trkpt lat="48.43172" lon="2.62281">
        <ele>137</ele>
        <time>2015-12-16T09:10:38Z</time>
      </trkpt>
      <trkpt lat="48.43161" lon="2.62279">
        <ele>137</ele>
        <time>2015-12-16T09:12:38Z</time>
      </trkpt>
      <trkpt lat="48.43146" lon="2.62269">
        <ele>138</ele>
        <time>2015-12-16T09:14:38Z</time>
      </trkpt>
      <trkpt lat="48.43133" lon="2.62257">
        <ele>139</ele>
        <time>2015-12-16T09:16:38Z</time>
      </trkpt>
      <trkpt lat="48.4312" lon="2.62242">
        <ele>139</ele>
        <time>2015-12-16T09:18:38Z</time>
      </trkpt>
      <trkpt lat="48.43105" lon="2.62226">
        <ele>139</ele>
        <time>2015-12-16T09:20:38Z</time>
      </trkpt>
      <trkpt lat="48.43089" lon="2.62212">
        <ele>139</ele>
        <time>2015-12-16T09:22:38Z</time>
      </trkpt>
      <trkpt lat="48.4294" lon="2.62068">
        <ele>138</ele>
        <time>2015-12-16T09:24:38Z</time>
      </trkpt>
      <trkpt lat="48.42915" lon="2.62046">
        <ele>139</ele>
        <time>2015-12-16T09:26:38Z</time>
      </trkpt>
      <trkpt lat="48.42901" lon="2.62046">
        <ele>139</ele>
        <time>2015-12-16T09:28:38Z</time>
      </trkpt>
      <trkpt lat="48.42892" lon="2.62049">
        <ele>139</ele>
        <time>2015-12-16T09:30:38Z</time>
      </trkpt>
      <trkpt lat="48.42857" lon="2.62085">
        <ele>139</ele>
        <time>2015-12-16T09:32:38Z</time>
      </trkpt>
      <trkpt lat="48.42829" lon="2.62109">
        <ele>139</ele>
        <time>2015-12-16T09:34:38Z</time>
      </trkpt>
      <trkpt lat="48.42802" lon="2.62133">
        <ele>138</ele>
        <time>2015-12-16T09:36:38Z</time>
      </trkpt>
      <trkpt lat="48.42771" lon="2.62159">
        <ele>137</ele>
        <time>2015-12-16T09:38:38Z</time>
      </trkpt>
      <trkpt lat="48.42743" lon="2.62173">
        <ele>135</ele>
        <time>2015-12-16T09:40:38Z</time>
      </trkpt>
      <trkpt lat="48.4272" lon="2.62171">
        <ele>133</ele>
        <time>2015-12-16T09:42:38Z</time>
      </trkpt>
      <trkpt lat="48.42715" lon="2.62167">
        <ele>133</ele>
        <time>2015-12-16T09:44:38Z</time>
      </trkpt>
      <trkpt lat="48.42704" lon="2.62159">
        <ele>132</ele>
        <time>2015-12-16T09:46:38Z</time>
      </trkpt>
      <trkpt lat="48.42668" lon="2.62138">
        <ele>129</ele>
        <time>2015-12-16T09:48:38Z</time>
      </trkpt>
      <trkpt lat="48.42637" lon="2.62131">
        <ele>126</ele>
        <time>2015-12-16T09:50:38Z</time>
      </trkpt>
      <trkpt lat="48.42628" lon="2.62131">
        <ele>124</ele>
        <time>2015-12-16T09:52:38Z</time>
      </trkpt>
      <trkpt lat="48.42577" lon="2.62126">
        <ele>118</ele>
        <time>2015-12-16T09:54:38Z</time>
      </trkpt>
      <trkpt lat="48.42391" lon="2.62073">
        <ele>103</ele>
        <time>2015-12-16T09:56:38Z</time>
      </trkpt>
      <trkpt lat="48.42357" lon="2.62065">
        <ele>103</ele>
        <time>2015-12-16T09:58:38Z</time>
      </trkpt>
      <trkpt lat="48.4235" lon="2.62063">
        <ele>103</ele>
        <time>2015-12-16T10:00:38Z</time>
      </trkpt>
      <trkpt lat="48.42339" lon="2.62068">
        <ele>103</ele>
        <time>2015-12-16T10:02:38Z</time>
      </trkpt>
      <trkpt lat="48.42346" lon="2.62079">
        <ele>103</ele>
        <time>2015-12-16T10:04:38Z</time>
      </trkpt>
      <trkpt lat="48.42361" lon="2.62103">
        <ele>103</ele>
        <time>2015-12-16T10:06:38Z</time>
      </trkpt>
      <trkpt lat="48.42423" lon="2.62216">
        <ele>107</ele>
        <time>2015-12-16T10:08:38Z</time>
      </trkpt>
      <trkpt lat="48.42438" lon="2.62241">
        <ele>108</ele>
        <time>2015-12-16T10:10:38Z</time>
      </trkpt>
      <trkpt lat="48.42475" lon="2.62312">
        <ele>110</ele>
        <time>2015-12-16T10:12:38Z</time>
      </trkpt>
      <trkpt lat="48.42496" lon="2.62348">
        <ele>112</ele>
        <time>2015-12-16T10:14:38Z</time>
      </trkpt>
      <trkpt lat="48.42535" lon="2.62421">
        <ele>117</ele>
        <time>2015-12-16T10:16:38Z</time>
      </trkpt>
      <trkpt lat="48.42548" lon="2.62443">
        <ele>118</ele>
        <time>2015-12-16T10:18:38Z</time>
      </trkpt>
      <trkpt lat="48.42556" lon="2.62461">
        <ele>119</ele>
        <time>2015-12-16T10:20:38Z</time>
      </trkpt>
      <trkpt lat="48.42565" lon="2.62478">
        <ele>120</ele>
        <time>2015-12-16T10:22:38Z</time>
      </trkpt>
      <trkpt lat="48.42576" lon="2.62497">
        <ele>120</ele>
        <time>2015-12-16T10:24:38Z</time>
      </trkpt>
      <trkpt lat="48.42589" lon="2.62517">
        <ele>121</ele>
        <time>2015-12-16T10:26:38Z</time>
      </trkpt>
      <trkpt lat="48.42602" lon="2.62538">
        <ele>123</ele>
        <time>2015-12-16T10:28:38Z</time>
      </trkpt>
      <trkpt lat="48.42606" lon="2.62553">
        <ele>124</ele>
        <time>2015-12-16T10:30:38Z</time>
      </trkpt>
      <trkpt lat="48.42616" lon="2.62569">
        <ele>125</ele>
        <time>2015-12-16T10:32:38Z</time>
      </trkpt>
      <trkpt lat="48.42638" lon="2.6261">
        <ele>128</ele>
        <time>2015-12-16T10:34:38Z</time>
      </trkpt>
      <trkpt lat="48.42648" lon="2.62627">
        <ele>129</ele>
        <time>2015-12-16T10:36:38Z</time>
      </trkpt>
      <trkpt lat="48.42671" lon="2.62669">
        <ele>130</ele>
        <time>2015-12-16T10:38:38Z</time>
      </trkpt>
      <trkpt lat="48.42674" lon="2.62686">
        <ele>131</ele>
        <time>2015-12-16T10:40:38Z</time>
      </trkpt>
      <trkpt lat="48.42667" lon="2.62703">
        <ele>131</ele>
        <time>2015-12-16T10:42:38Z</time>
      </trkpt>
      <trkpt lat="48.42655" lon="2.62728">
        <ele>132</ele>
        <time>2015-12-16T10:44:38Z</time>
      </trkpt>
      <trkpt lat="48.42645" lon="2.62745">
        <ele>132</ele>
        <time>2015-12-16T10:46:38Z</time>
      </trkpt>
      <trkpt lat="48.42633" lon="2.62768">
        <ele>133</ele>
        <time>2015-12-16T10:48:38Z</time>
      </trkpt>
      <trkpt lat="48.42624" lon="2.62783">
        <ele>133</ele>
        <time>2015-12-16T10:50:38Z</time>
      </trkpt>
      <trkpt lat="48.426" lon="2.62835">
        <ele>134</ele>
        <time>2015-12-16T10:52:38Z</time>
      </trkpt>
      <trkpt lat="48.42589" lon="2.62859">
        <ele>134</ele>
        <time>2015-12-16T10:54:38Z</time>
      </trkpt>
      <trkpt lat="48.42578" lon="2.62883">
        <ele>134</ele>
        <time>2015-12-16T10:56:38Z</time>
      </trkpt>
      <trkpt lat="48.42567" lon="2.62898">
        <ele>135</ele>
        <time>2015-12-16T10:58:38Z</time>
      </trkpt>
      <trkpt lat="48.42558" lon="2.62916">
        <ele>135</ele>
        <time>2015-12-16T11:00:38Z</time>
      </trkpt>
      <trkpt lat="48.4254" lon="2.62956">
        <ele>134</ele>
        <time>2015-12-16T11:02:38Z</time>
      </trkpt>
      <trkpt lat="48.42528" lon="2.62972">
        <ele>134</ele>
        <time>2015-12-16T11:04:38Z</time>
      </trkpt>
      <trkpt lat="48.42514" lon="2.63002">
        <ele>133</ele>
        <time>2015-12-16T11:06:38Z</time>
      </trkpt>
      <trkpt lat="48.42507" lon="2.63021">
        <ele>132</ele>
        <time>2015-12-16T11:08:38Z</time>
      </trkpt>
      <trkpt lat="48.42501" lon="2.63022">
        <ele>132</ele>
        <time>2015-12-16T11:10:38Z</time>
      </trkpt>
      <trkpt lat="48.42489" lon="2.63024">
        <ele>130</ele>
        <time>2015-12-16T11:12:38Z</time>
      </trkpt>
      <trkpt lat="48.42478" lon="2.63025">
        <ele>129</ele>
        <time>2015-12-16T11:14:38Z</time>
      </trkpt>
      <trkpt lat="48.42446" lon="2.63028">
        <ele>124</ele>
        <time>2015-12-16T11:16:38Z</time>
      </trkpt>
      <trkpt lat="48.42361" lon="2.63042">
        <ele>114</ele>
        <time>2015-12-16T11:18:38Z</time>
      </trkpt>
      <trkpt lat="48.42268" lon="2.63063">
        <ele>108</ele>
        <time>2015-12-16T11:20:38Z</time>
      </trkpt>
      <trkpt lat="48.42245" lon="2.63065">
        <ele>107</ele>
        <time>2015-12-16T11:22:38Z</time>
      </trkpt>
      <trkpt lat="48.42231" lon="2.63063">
        <ele>107</ele>
        <time>2015-12-16T11:24:38Z</time>
      </trkpt>
      <trkpt lat="48.42199" lon="2.63038">
        <ele>106</ele>
        <time>2015-12-16T11:26:38Z</time>
      </trkpt>
      <trkpt lat="48.42107" lon="2.6297">
        <ele>106</ele>
        <time>2015-12-16T11:28:38Z</time>
      </trkpt>
      <trkpt lat="48.42084" lon="2.6295">
        <ele>105</ele>
        <time>2015-12-16T11:30:38Z</time>
      </trkpt>
      <trkpt lat="48.42017" lon="2.62896">
        <ele>112</ele>
        <time>2015-12-16T11:32:38Z</time>
      </trkpt>
      <trkpt lat="48.41987" lon="2.62873">
        <ele>116</ele>
        <time>2015-12-16T11:34:38Z</time>
      </trkpt>
      <trkpt lat="48.4197" lon="2.6286">
        <ele>119</ele>
        <time>2015-12-16T11:36:38Z</time>
      </trkpt>
      <trkpt lat="48.41964" lon="2.62857">
        <ele>120</ele>
        <time>2015-12-16T11:38:38Z</time>
      </trkpt>
      <trkpt lat="48.41958" lon="2.62867">
        <ele>122</ele>
        <time>2015-12-16T11:40:38Z</time>
      </trkpt>
      <trkpt lat="48.41951" lon="2.62888">
        <ele>123</ele>
        <time>2015-12-16T11:42:38Z</time>
      </trkpt>
      <trkpt lat="48.41943" lon="2.62898">
        <ele>125</ele>
        <time>2015-12-16T11:44:38Z</time>
      </trkpt>
      <trkpt lat="48.41926" lon="2.62915">
        <ele>128</ele>
        <time>2015-12-16T11:46:38Z</time>
      </trkpt>
      <trkpt lat="48.41914" lon="2.6292">
        <ele>130</ele>
        <time>2015-12-16T11:48:38Z</time>
      </trkpt>
      <trkpt lat="48.419" lon="2.62912">
        <ele>131</ele>
        <time>2015-12-16T11:50:38Z</time>
      </trkpt>
      <trkpt lat="48.41876" lon="2.62884">
        <ele>133</ele>
        <time>2015-12-16T11:52:38Z</time>
      </trkpt>
      <trkpt lat="48.41864" lon="2.62877">
        <ele>134</ele>
        <time>2015-12-16T11:54:38Z</time>
      </trkpt>
      <trkpt lat="48.41849" lon="2.6287">
        <ele>136</ele>
        <time>2015-12-16T11:56:38Z</time>
      </trkpt>
      <trkpt lat="48.41815" lon="2.62857">
        <ele>137</ele>
        <time>2015-12-16T11:58:38Z</time>
      </trkpt>
      <trkpt lat="48.41805" lon="2.62853">
        <ele>138</ele>
        <time>2015-12-16T12:00:38Z</time>
      </trkpt>
      <trkpt lat="48.41806" lon="2.62851">
        <ele>138</ele>
        <time>2015-12-16T12:02:38Z</time>
      </trkpt>
      <trkpt lat="48.41808" lon="2.62848">
        <ele>138</ele>
        <time>2015-12-16T12:04:38Z</time>
      </trkpt>
      <trkpt lat="48.41796" lon="2.62842">
        <ele>138</ele>
        <time>2015-12-16T12:06:38Z</time>
      </trkpt>
      <trkpt lat="48.4178" lon="2.62837">
        <ele>138</ele>
        <time>2015-12-16T12:08:38Z</time>
      </trkpt>
      <trkpt lat="48.41653" lon="2.62787">
        <ele>130</ele>
        <time>2015-12-16T12:10:38Z</time>
      </trkpt>
      <trkpt lat="48.41622" lon="2.62754">
        <ele>125</ele>
        <time>2015-12-16T12:12:38Z</time>
      </trkpt>
      <trkpt lat="48.41598" lon="2.62723">
        <ele>120</ele>
        <time>2015-12-16T12:14:38Z</time>
      </trkpt>
      <trkpt lat="48.41583" lon="2.62691">
        <ele>118</ele>
        <time>2015-12-16T12:16:38Z</time>
      </trkpt>
      <trkpt lat="48.41582" lon="2.62644">
        <ele>115</ele>
        <time>2015-12-16T12:18:38Z</time>
      </trkpt>
      <trkpt lat="48.41593" lon="2.6261">
        <ele>113</ele>
        <time>2015-12-16T12:20:38Z</time>
      </trkpt>
      <trkpt lat="48.41601" lon="2.6259">
        <ele>111</ele>
        <time>2015-12-16T12:22:38Z</time>
      </trkpt>
      <trkpt lat="48.41594" lon="2.62551">
        <ele>108</ele>
        <time>2015-12-16T12:24:38Z</time>
      </trkpt>
      <trkpt lat="48.41586" lon="2.62534">
        <ele>107</ele>
        <time>2015-12-16T12:26:38Z</time>
      </trkpt>
      <trkpt lat="48.4158" lon="2.62516">
        <ele>106</ele>
        <time>2015-12-16T12:28:38Z</time>
      </trkpt>
      <trkpt lat="48.41583" lon="2.62504">
        <ele>105</ele>
        <time>2015-12-16T12:30:38Z</time>
      </trkpt>
      <trkpt lat="48.41583" lon="2.62496">
        <ele>105</ele>
        <time>2015-12-16T12:32:38Z</time>
      </trkpt>
      <trkpt lat="48.41575" lon="2.62486">
        <ele>106</ele>
        <time>2015-12-16T12:34:38Z</time>
      </trkpt>
      <trkpt lat="48.41558" lon="2.62475">
        <ele>107</ele>
        <time>2015-12-16T12:36:38Z</time>
      </trkpt>
      <trkpt lat="48.41543" lon="2.62469">
        <ele>108</ele>
        <time>2015-12-16T12:38:38Z</time>
      </trkpt>
      <trkpt lat="48.41523" lon="2.62468">
        <ele>110</ele>
        <time>2015-12-16T12:40:38Z</time>
      </trkpt>
      <trkpt lat="48.41504" lon="2.62474">
        <ele>111</ele>
        <time>2015-12-16T12:42:38Z</time>
      </trkpt>
      <trkpt lat="48.41478" lon="2.62488">
        <ele>114</ele>
        <time>2015-12-16T12:44:38Z</time>
      </trkpt>
      <trkpt lat="48.41466" lon="2.62495">
        <ele>116</ele>
        <time>2015-12-16T12:46:38Z</time>
      </trkpt>
      <trkpt lat="48.41456" lon="2.62504">
        <ele>117</ele>
        <time>2015-12-16T12:48:38Z</time>
      </trkpt>
      <trkpt lat="48.41444" lon="2.62511">
        <ele>119</ele>
        <time>2015-12-16T12:50:38Z</time>
      </trkpt>
      <trkpt lat="48.41415" lon="2.62532">
        <ele>122</ele>
        <time>2015-12-16T12:52:38Z</time>
      </trkpt>
      <trkpt lat="48.41387" lon="2.62558">
        <ele>125</ele>
        <time>2015-12-16T12:54:38Z</time>
      </trkpt>
      <trkpt lat="48.4136" lon="2.62579">
        <ele>127</ele>
        <time>2015-12-16T12:56:38Z</time>
      </trkpt>
      <trkpt lat="48.41316" lon="2.62642">
        <ele>130</ele>
        <time>2015-12-16T12:58:38Z</time>
      </trkpt>
      <trkpt lat="48.41311" lon="2.6265">
        <ele>131</ele>
        <time>2015-12-16T13:00:38Z</time>
      </trkpt>
      <trkpt lat="48.41301" lon="2.6266">
        <ele>131</ele>
        <time>2015-12-16T13:02:38Z</time>
      </trkpt>
      <trkpt lat="48.41274" lon="2.62703">
        <ele>133</ele>
        <time>2015-12-16T13:04:38Z</time>
      </trkpt>
      <trkpt lat="48.41261" lon="2.62723">
        <ele>134</ele>
        <time>2015-12-16T13:06:38Z</time>
      </trkpt>
      <trkpt lat="48.41248" lon="2.6274">
        <ele>134</ele>
        <time>2015-12-16T13:08:38Z</time>
      </trkpt>
      <trkpt lat="48.41236" lon="2.62758">
        <ele>134</ele>
        <time>2015-12-16T13:10:38Z</time>
      </trkpt>
      <trkpt lat="48.41223" lon="2.62777">
        <ele>134</ele>
        <time>2015-12-16T13:12:38Z</time>
      </trkpt>
      <trkpt lat="48.41205" lon="2.628">
        <ele>134</ele>
        <time>2015-12-16T13:14:38Z</time>
      </trkpt>
      <trkpt lat="48.41173" lon="2.62843">
        <ele>135</ele>
        <time>2015-12-16T13:16:38Z</time>
      </trkpt>
      <trkpt lat="48.41155" lon="2.6287">
        <ele>135</ele>
        <time>2015-12-16T13:18:38Z</time>
      </trkpt>
      <trkpt lat="48.41138" lon="2.62896">
        <ele>135</ele>
        <time>2015-12-16T13:20:38Z</time>
      </trkpt>
      <trkpt lat="48.41123" lon="2.62916">
        <ele>136</ele>
        <time>2015-12-16T13:22:38Z</time>
      </trkpt>
      <trkpt lat="48.41108" lon="2.6294">
        <ele>136</ele>
        <time>2015-12-16T13:24:38Z</time>
      </trkpt>
      <trkpt lat="48.41077" lon="2.62985">
        <ele>137</ele>
        <time>2015-12-16T13:26:38Z</time>
      </trkpt>
      <trkpt lat="48.41061" lon="2.63008">
        <ele>138</ele>
        <time>2015-12-16T13:28:38Z</time>
      </trkpt>
      <trkpt lat="48.41048" lon="2.63029">
        <ele>138</ele>
        <time>2015-12-16T13:30:38Z</time>
      </trkpt>
      <trkpt lat="48.4103" lon="2.63051">
        <ele>138</ele>
        <time>2015-12-16T13:32:38Z</time>
      </trkpt>
      <trkpt lat="48.41014" lon="2.63075">
        <ele>138</ele>
        <time>2015-12-16T13:34:38Z</time>
      </trkpt>
      <trkpt lat="48.41" lon="2.6312">
        <ele>139</ele>
        <time>2015-12-16T13:36:38Z</time>
      </trkpt>
      <trkpt lat="48.40989" lon="2.63165">
        <ele>139</ele>
        <time>2015-12-16T13:38:38Z</time>
      </trkpt>
      <trkpt lat="48.4098" lon="2.63209">
        <ele>138</ele>
        <time>2015-12-16T13:40:38Z</time>
      </trkpt>
      <trkpt lat="48.40964" lon="2.63267">
        <ele>137</ele>
        <time>2015-12-16T13:42:38Z</time>
      </trkpt>
      <trkpt lat="48.40955" lon="2.63306">
        <ele>138</ele>
        <time>2015-12-16T13:44:38Z</time>
      </trkpt>
      <trkpt lat="48.40951" lon="2.63323">
        <ele>138</ele>
        <time>2015-12-16T13:46:38Z</time>
      </trkpt>
      <trkpt lat="48.40946" lon="2.63373">
        <ele>138</ele>
        <time>2015-12-16T13:48:38Z</time>
      </trkpt>
      <trkpt lat="48.40938" lon="2.63427">
        <ele>139</ele>
        <time>2015-12-16T13:50:38Z</time>
      </trkpt>
      <trkpt lat="48.40929" lon="2.6348">
        <ele>139</ele>
        <time>2015-12-16T13:52:38Z</time>
      </trkpt>
      <trkpt lat="48.4092" lon="2.63523">
        <ele>140</ele>
        <time>2015-12-16T13:54:38Z</time>
      </trkpt>
      <trkpt lat="48.40909" lon="2.63575">
        <ele>141</ele>
        <time>2015-12-16T13:56:38Z</time>
      </trkpt>
      <trkpt lat="48.40902" lon="2.63619">
        <ele>141</ele>
        <time>2015-12-16T13:58:38Z</time>
      </trkpt>
      <trkpt lat="48.40898" lon="2.63654">
        <ele>140</ele>
        <time>2015-12-16T14:00:38Z</time>
      </trkpt>
      <trkpt lat="48.40891" lon="2.6369">
        <ele>140</ele>
        <time>2015-12-16T14:02:38Z</time>
      </trkpt>
      <trkpt lat="48.40881" lon="2.63755">
        <ele>139</ele>
        <time>2015-12-16T14:04:38Z</time>
      </trkpt>
      <trkpt lat="48.40877" lon="2.63786">
        <ele>139</ele>
        <time>2015-12-16T14:06:38Z</time>
      </trkpt>
      <trkpt lat="48.40871" lon="2.63821">
        <ele>139</ele>
        <time>2015-12-16T14:08:38Z</time>
      </trkpt>
      <trkpt lat="48.40863" lon="2.63864">
        <ele>139</ele>
        <time>2015-12-16T14:10:38Z</time>
      </trkpt>
      <trkpt lat="48.40856" lon="2.6388">
        <ele>139</ele>
        <time>2015-12-16T14:12:38Z</time>
      </trkpt>
      <trkpt lat="48.40854" lon="2.63897">
        <ele>138</ele>
        <time>2015-12-16T14:14:38Z</time>
      </trkpt>
      <trkpt lat="48.40856" lon="2.63926">
        <ele>138</ele>
        <time>2015-12-16T14:16:38Z</time>
      </trkpt>
      <trkpt lat="48.40852" lon="2.63941">
        <ele>138</ele>
        <time>2015-12-16T14:18:38Z</time>
      </trkpt>
      <trkpt lat="48.40852" lon="2.63959">
        <ele>139</ele>
        <time>2015-12-16T14:20:38Z</time>
      </trkpt>
      <trkpt lat="48.40836" lon="2.64048">
        <ele>139</ele>
        <time>2015-12-16T14:22:38Z</time>
      </trkpt>
      <trkpt lat="48.40831" lon="2.64097">
        <ele>138</ele>
        <time>2015-12-16T14:24:38Z</time>
      </trkpt>
      <trkpt lat="48.40824" lon="2.64139">
        <ele>137</ele>
        <time>2015-12-16T14:26:38Z</time>
      </trkpt>
      <trkpt lat="48.40816" lon="2.64193">
        <ele>137</ele>
        <time>2015-12-16T14:28:38Z</time>
      </trkpt>
      <trkpt lat="48.40805" lon="2.64258">
        <ele>137</ele>
        <time>2015-12-16T14:30:38Z</time>
      </trkpt>
      <trkpt lat="48.40791" lon="2.64317">
        <ele>137</ele>
        <time>2015-12-16T14:32:38Z</time>
      </trkpt>
      <trkpt lat="48.40783" lon="2.64361">
        <ele>136</ele>
        <time>2015-12-16T14:34:38Z</time>
      </trkpt>
      <trkpt lat="48.4077" lon="2.64411">
        <ele>135</ele>
        <time>2015-12-16T14:36:38Z</time>
      </trkpt>
      <trkpt lat="48.4076" lon="2.64463">
        <ele>134</ele>
        <time>2015-12-16T14:38:38Z</time>
      </trkpt>
      <trkpt lat="48.40754" lon="2.64512">
        <ele>133</ele>
        <time>2015-12-16T14:40:38Z</time>
      </trkpt>
      <trkpt lat="48.40747" lon="2.64577">
        <ele>129</ele>
        <time>2015-12-16T14:42:38Z</time>
      </trkpt>
      <trkpt lat="48.40729" lon="2.64729">
        <ele>125</ele>
        <time>2015-12-16T14:44:38Z</time>
      </trkpt>
      <trkpt lat="48.40713" lon="2.64848">
        <ele>121</ele>
        <time>2015-12-16T14:46:38Z</time>
      </trkpt>
      <trkpt lat="48.40708" lon="2.64895">
        <ele>121</ele>
        <time>2015-12-16T14:48:38Z</time>
      </trkpt>
      <trkpt lat="48.407" lon="2.64945">
        <ele>120</ele>
        <time>2015-12-16T14:50:38Z</time>
      </trkpt>
      <trkpt lat="48.40694" lon="2.64988">
        <ele>117</ele>
        <time>2015-12-16T14:52:38Z</time>
      </trkpt>
      <trkpt lat="48.40697" lon="2.65007">
        <ele>117</ele>
        <time>2015-12-16T14:54:38Z</time>
      </trkpt>
      <trkpt lat="48.4071" lon="2.6502">
        <ele>118</ele>
        <time>2015-12-16T14:56:38Z</time>
      </trkpt>
      <trkpt lat="48.40715" lon="2.65037">
        <ele>118</ele>
        <time>2015-12-16T14:58:38Z</time>
      </trkpt>
      <trkpt lat="48.40725" lon="2.65058">
        <ele>119</ele>
        <time>2015-12-16T15:00:38Z</time>
      </trkpt>
      <trkpt lat="48.40732" lon="2.65071">
        <ele>119</ele>
        <time>2015-12-16T15:02:38Z</time>
      </trkpt>
      <trkpt lat="48.40758" lon="2.65099">
        <ele>121</ele>
        <time>2015-12-16T15:04:38Z</time>
      </trkpt>
      <trkpt lat="48.40769" lon="2.65109">
        <ele>123</ele>
        <time>2015-12-16T15:06:38Z</time>
      </trkpt>
      <trkpt lat="48.40782" lon="2.65122">
        <ele>125</ele>
        <time>2015-12-16T15:08:38Z</time>
      </trkpt>
      <trkpt lat="48.4079" lon="2.65136">
        <ele>126</ele>
        <time>2015-12-16T15:10:38Z</time>
      </trkpt>
      <trkpt lat="48.40792" lon="2.65144">
        <ele>126</ele>
        <time>2015-12-16T15:12:38Z</time>
      </trkpt>
      <trkpt lat="48.40794" lon="2.65164">
        <ele>127</ele>
        <time>2015-12-16T15:14:38Z</time>
      </trkpt>
      <trkpt lat="48.40788" lon="2.65172">
        <ele>126</ele>
        <time>2015-12-16T15:16:38Z</time>
      </trkpt>
      <trkpt lat="48.40786" lon="2.65188">
        <ele>127</ele>
        <time>2015-12-16T15:18:38Z</time>
      </trkpt>
      <trkpt lat="48.4079" lon="2.6521">
        <ele>129</ele>
        <time>2015-12-16T15:20:38Z</time>
      </trkpt>
      <trkpt lat="48.40789" lon="2.65226">
        <ele>129</ele>
        <time>2015-12-16T15:22:38Z</time>
      </trkpt>
      <trkpt lat="48.40789" lon="2.6523">
        <ele>130</ele>
        <time>2015-12-16T15:24:38Z</time>
      </trkpt>
      <trkpt lat="48.40783" lon="2.65253">
        <ele>130</ele>
        <time>2015-12-16T15:26:38Z</time>
      </trkpt>
      <trkpt lat="48.40781" lon="2.65272">
        <ele>130</ele>
        <time>2015-12-16T15:28:38Z</time>
      </trkpt>
      <trkpt lat="48.40779" lon="2.65288">
        <ele>130</ele>
        <time>2015-12-16T15:30:38Z</time>
      </trkpt>
      <trkpt lat="48.40782" lon="2.65308">
        <ele>130</ele>
        <time>2015-12-16T15:32:38Z</time>
      </trkpt>
      <trkpt lat="48.40778" lon="2.6535">
        <ele>130</ele>
        <time>2015-12-16T15:34:38Z</time>
      </trkpt>
      <trkpt lat="48.40776" lon="2.65368">
        <ele>130</ele>
        <time>2015-12-16T15:36:38Z</time>
      </trkpt>
      <trkpt lat="48.40778" lon="2.65399">
        <ele>131</ele>
        <time>2015-12-16T15:38:38Z</time>
      </trkpt>
      <trkpt lat="48.40777" lon="2.6542">
        <ele>131</ele>
        <time>2015-12-16T15:40:38Z</time>
      </trkpt>
      <trkpt lat="48.40775" lon="2.65439">
        <ele>131</ele>
        <time>2015-12-16T15:42:38Z</time>
      </trkpt>
      <trkpt lat="48.40771" lon="2.65455">
        <ele>131</ele>
        <time>2015-12-16T15:44:38Z</time>
      </trkpt>
      <trkpt lat="48.40763" lon="2.65472">
        <ele>131</ele>
        <time>2015-12-16T15:46:38Z</time>
      </trkpt>
      <trkpt lat="48.40758" lon="2.65492">
        <ele>131</ele>
        <time>2015-12-16T15:48:38Z</time>
      </trkpt>
      <trkpt lat="48.40762" lon="2.65516">
        <ele>131</ele>
        <time>2015-12-16T15:50:38Z</time>
      </trkpt>
      <trkpt lat="48.40764" lon="2.65522">
        <ele>131</ele>
        <time>2015-12-16T15:52:38Z</time>
      </trkpt>
      <trkpt lat="48.40786" lon="2.65562">
        <ele>132</ele>
        <time>2015-12-16T15:54:38Z</time>
      </trkpt>
      <trkpt lat="48.40791" lon="2.65589">
        <ele>132</ele>
        <time>2015-12-16T15:56:38Z</time>
      </trkpt>
      <trkpt lat="48.40795" lon="2.65628">
        <ele>132</ele>
        <time>2015-12-16T15:58:38Z</time>
      </trkpt>
      <trkpt lat="48.40799" lon="2.6565">
        <ele>132</ele>
        <time>2015-12-16T16:00:38Z</time>
      </trkpt>
      <trkpt lat="48.40796" lon="2.65687">
        <ele>131</ele>
        <time>2015-12-16T16:02:38Z</time>
      </trkpt>
      <trkpt lat="48.40787" lon="2.65717">
        <ele>129</ele>
        <time>2015-12-16T16:04:38Z</time>
      </trkpt>
      <trkpt lat="48.40782" lon="2.65765">
        <ele>128</ele>
        <time>2015-12-16T16:06:38Z</time>
      </trkpt>
      <trkpt lat="48.40782" lon="2.65775">
        <ele>128</ele>
        <time>2015-12-16T16:08:38Z</time>
      </trkpt>
      <trkpt lat="48.4078" lon="2.65806">
        <ele>129</ele>
        <time>2015-12-16T16:10:38Z</time>
      </trkpt>
      <trkpt lat="48.40769" lon="2.65844">
        <ele>128</ele>
        <time>2015-12-16T16:12:38Z</time>
      </trkpt>
      <trkpt lat="48.4076" lon="2.65883">
        <ele>128</ele>
        <time>2015-12-16T16:14:38Z</time>
      </trkpt>
      <trkpt lat="48.40758" lon="2.65929">
        <ele>128</ele>
        <time>2015-12-16T16:16:38Z</time>
      </trkpt>
      <trkpt lat="48.40759" lon="2.65974">
        <ele>129</ele>
        <time>2015-12-16T16:18:38Z</time>
      </trkpt>
      <trkpt lat="48.40761" lon="2.66014">
        <ele>129</ele>
        <time>2015-12-16T16:20:38Z</time>
      </trkpt>
      <trkpt lat="48.40761" lon="2.6602">
        <ele>129</ele>
        <time>2015-12-16T16:22:38Z</time>
      </trkpt>
      <trkpt lat="48.40762" lon="2.6605">
        <ele>129</ele>
        <time>2015-12-16T16:24:38Z</time>
      </trkpt>
      <trkpt lat="48.40765" lon="2.6608">
        <ele>130</ele>
        <time>2015-12-16T16:26:38Z</time>
      </trkpt>
      <trkpt lat="48.40769" lon="2.66102">
        <ele>130</ele>
        <time>2015-12-16T16:28:38Z</time>
      </trkpt>
      <trkpt lat="48.40771" lon="2.66116">
        <ele>130</ele>
        <time>2015-12-16T16:30:38Z</time>
      </trkpt>
      <trkpt lat="48.40777" lon="2.66146">
        <ele>131</ele>
        <time>2015-12-16T16:32:38Z</time>
      </trkpt>
      <trkpt lat="48.40787" lon="2.66176">
        <ele>132</ele>
        <time>2015-12-16T16:34:38Z</time>
      </trkpt>
      <trkpt lat="48.40794" lon="2.66207">
        <ele>134</ele>
        <time>2015-12-16T16:36:38Z</time>
      </trkpt>
      <trkpt lat="48.40799" lon="2.66242">
        <ele>134</ele>
        <time>2015-12-16T16:38:38Z</time>
      </trkpt>
      <trkpt lat="48.40801" lon="2.66256">
        <ele>135</ele>
        <time>2015-12-16T16:40:38Z</time>
      </trkpt>
      <trkpt lat="48.40801" lon="2.66284">
        <ele>135</ele>
        <time>2015-12-16T16:42:38Z</time>
      </trkpt>
      <trkpt lat="48.40802" lon="2.66298">
        <ele>136</ele>
        <time>2015-12-16T16:44:38Z</time>
      </trkpt>
      <trkpt lat="48.40799" lon="2.66347">
        <ele>136</ele>
        <time>2015-12-16T16:46:38Z</time>
      </trkpt>
      <trkpt lat="48.408" lon="2.66378">
        <ele>136</ele>
        <time>2015-12-16T16:48:38Z</time>
      </trkpt>
      <trkpt lat="48.408" lon="2.66433">
        <ele>136</ele>
        <time>2015-12-16T16:50:38Z</time>
      </trkpt>
      <trkpt lat="48.40801" lon="2.66447">
        <ele>136</ele>
        <time>2015-12-16T16:52:38Z</time>
      </trkpt>
      <trkpt lat="48.40802" lon="2.6651">
        <ele>135</ele>
        <time>2015-12-16T16:54:38Z</time>
      </trkpt>
      <trkpt lat="48.40798" lon="2.66538">
        <ele>135</ele>
        <time>2015-12-16T16:56:38Z</time>
      </trkpt>
      <trkpt lat="48.40786" lon="2.66573">
        <ele>133</ele>
        <time>2015-12-16T16:58:38Z</time>
      </trkpt>
      <trkpt lat="48.40782" lon="2.66586">
        <ele>133</ele>
        <time>2015-12-16T17:00:38Z</time>
      </trkpt>
      <trkpt lat="48.40773" lon="2.66606">
        <ele>131</ele>
        <time>2015-12-16T17:02:38Z</time>
      </trkpt>
      <trkpt lat="48.40761" lon="2.66624">
        <ele>129</ele>
        <time>2015-12-16T17:04:38Z</time>
      </trkpt>
      <trkpt lat="48.40755" lon="2.66664">
        <ele>128</ele>
        <time>2015-12-16T17:06:38Z</time>
      </trkpt>
      <trkpt lat="48.40757" lon="2.66698">
        <ele>128</ele>
        <time>2015-12-16T17:08:38Z</time>
      </trkpt>
      <trkpt lat="48.40756" lon="2.66733">
        <ele>128</ele>
        <time>2015-12-16T17:10:38Z</time>
      </trkpt>
      <trkpt lat="48.40753" lon="2.66759">
        <ele>127</ele>
        <time>2015-12-16T17:12:38Z</time>
      </trkpt>
      <trkpt lat="48.40748" lon="2.66772">
        <ele>127</ele>
        <time>2015-12-16T17:14:38Z</time>
      </trkpt>
      <trkpt lat="48.40738" lon="2.66826">
        <ele>126</ele>
        <time>2015-12-16T17:16:38Z</time>
      </trkpt>
      <trkpt lat="48.40736" lon="2.66836">
        <ele>126</ele>
        <time>2015-12-16T17:18:38Z</time>
      </trkpt>
      <trkpt lat="48.40737" lon="2.6686">
        <ele>126</ele>
        <time>2015-12-16T17:20:38Z</time>
      </trkpt>
      <trkpt lat="48.40742" lon="2.66891">
        <ele>127</ele>
        <time>2015-12-16T17:22:38Z</time>
      </trkpt>
      <trkpt lat="48.40746" lon="2.66935">
        <ele>127</ele>
        <time>2015-12-16T17:24:38Z</time>
      </trkpt>
      <trkpt lat="48.40755" lon="2.6696">
        <ele>127</ele>
        <time>2015-12-16T17:26:38Z</time>
      </trkpt>
      <trkpt lat="48.40762" lon="2.66985">
        <ele>126</ele>
        <time>2015-12-16T17:28:38Z</time>
      </trkpt>
      <trkpt lat="48.40763" lon="2.66993">
        <ele>125</ele>
        <time>2015-12-16T17:30:38Z</time>
      </trkpt>
      <trkpt lat="48.40765" lon="2.67008">
        <ele>125</ele>
        <time>2015-12-16T17:32:38Z</time>
      </trkpt>
      <trkpt lat="48.40773" lon="2.67036">
        <ele>124</ele>
        <time>2015-12-16T17:34:38Z</time>
      </trkpt>
      <trkpt lat="48.40778" lon="2.67077">
        <ele>122</ele>
        <time>2015-12-16T17:36:38Z</time>
      </trkpt>
      <trkpt lat="48.4078" lon="2.67117">
        <ele>120</ele>
        <time>2015-12-16T17:38:38Z</time>
      </trkpt>
      <trkpt lat="48.40783" lon="2.67132">
        <ele>120</ele>
        <time>2015-12-16T17:40:38Z</time>
      </trkpt>
      <trkpt lat="48.40786" lon="2.6715">
        <ele>119</ele>
        <time>2015-12-16T17:42:38Z</time>
      </trkpt>
      <trkpt lat="48.40792" lon="2.67165">
        <ele>119</ele>
        <time>2015-12-16T17:44:38Z</time>
      </trkpt>
      <trkpt lat="48.40797" lon="2.67187">
        <ele>118</ele>
        <time>2015-12-16T17:46:38Z</time>
      </trkpt>
      <trkpt lat="48.40798" lon="2.67193">
        <ele>118</ele>
        <time>2015-12-16T17:48:38Z</time>
      </trkpt>
      <trkpt lat="48.40809" lon="2.67213">
        <ele>119</ele>
        <time>2015-12-16T17:50:38Z</time>
      </trkpt>
      <trkpt lat="48.40814" lon="2.67225">
        <ele>119</ele>
        <time>2015-12-16T17:52:38Z</time>
      </trkpt>
      <trkpt lat="48.40819" lon="2.67231">
        <ele>119</ele>
        <time>2015-12-16T17:54:38Z</time>
      </trkpt>
      <trkpt lat="48.40829" lon="2.67242">
        <ele>120</ele>
        <time>2015-12-16T17:56:38Z</time>
      </trkpt>
      <trkpt lat="48.40847" lon="2.67263">
        <ele>120</ele>
        <time>2015-12-16T17:58:38Z</time>
      </trkpt>
      <trkpt lat="48.40865" lon="2.67275">
        <ele>120</ele>
        <time>2015-12-16T18:00:38Z</time>
      </trkpt>
      <trkpt lat="48.4089" lon="2.67299">
        <ele>119</ele>
        <time>2015-12-16T18:02:38Z</time>
      </trkpt>
      <trkpt lat="48.40893" lon="2.673">
        <ele>119</ele>
        <time>2015-12-16T18:04:38Z</time>
      </trkpt>
      <trkpt lat="48.40913" lon="2.67318">
        <ele>119</ele>
        <time>2015-12-16T18:06:38Z</time>
      </trkpt>
      <trkpt lat="48.40923" lon="2.67339">
        <ele>117</ele>
        <time>2015-12-16T18:08:38Z</time>
      </trkpt>
      <trkpt lat="48.40925" lon="2.67352">
        <ele>115</ele>
        <time>2015-12-16T18:10:38Z</time>
      </trkpt>
      <trkpt lat="48.40931" lon="2.67395">
        <ele>111</ele>
        <time>2015-12-16T18:12:38Z</time>
      </trkpt>
      <trkpt lat="48.40934" lon="2.674">
        <ele>110</ele>
        <time>2015-12-16T18:14:38Z</time>
      </trkpt>
      <trkpt lat="48.40934" lon="2.674">
        <ele>110</ele>
        <time>2015-12-16T18:16:38Z</time>
      </trkpt>
      <trkpt lat="48.40931" lon="2.67392">
        <ele>111</ele>
        <time>2015-12-16T18:18:38Z</time>
      </trkpt>
      <trkpt lat="48.40932" lon="2.67394">
        <ele>111</ele>
        <time>2015-12-16T18:20:38Z</time>
      </trkpt>
      <trkpt lat="48.40938" lon="2.67413">
        <ele>109</ele>
        <time>2015-12-16T18:22:38Z</time>
      </trkpt>
      <trkpt lat="48.4094" lon="2.67444">
        <ele>107</ele>
        <time>2015-12-16T18:24:38Z</time>
      </trkpt>
      <trkpt lat="48.40941" lon="2.67453">
        <ele>106</ele>
        <time>2015-12-16T18:26:38Z</time>
      </trkpt>
      <trkpt lat="48.40943" lon="2.67479">
        <ele>105</ele>
        <time>2015-12-16T18:28:38Z</time>
      </trkpt>
      <trkpt lat="48.4094" lon="2.67517">
        <ele>103</ele>
        <time>2015-12-16T18:30:38Z</time>
      </trkpt>
      <trkpt lat="48.40931" lon="2.67547">
        <ele>101</ele>
        <time>2015-12-16T18:32:38Z</time>
      </trkpt>
      <trkpt lat="48.40914" lon="2.67609">
        <ele>99</ele>
        <time>2015-12-16T18:34:38Z</time>
      </trkpt>
      <trkpt lat="48.4089" lon="2.67664">
        <ele>97</ele>
        <time>2015-12-16T18:36:38Z</time>
      </trkpt>
      <trkpt lat="48.40871" lon="2.67697">
        <ele>96</ele>
        <time>2015-12-16T18:38:38Z</time>
      </trkpt>
      <trkpt lat="48.40854" lon="2.67729">
        <ele>96</ele>
        <time>2015-12-16T18:40:38Z</time>
      </trkpt>
      <trkpt lat="48.40848" lon="2.6776">
        <ele>96</ele>
        <time>2015-12-16T18:42:38Z</time>
      </trkpt>
      <trkpt lat="48.40848" lon="2.67776">
        <ele>95</ele>
        <time>2015-12-16T18:44:38Z</time>
      </trkpt>
      <trkpt lat="48.40847" lon="2.67805">
        <ele>95</ele>
        <time>2015-12-16T18:46:38Z</time>
      </trkpt>
      <trkpt lat="48.40845" lon="2.67824">
        <ele>95</ele>
        <time>2015-12-16T18:48:38Z</time>
      </trkpt>
      <trkpt lat="48.40842" lon="2.67851">
        <ele>95</ele>
        <time>2015-12-16T18:50:38Z</time>
      </trkpt>
      <trkpt lat="48.40839" lon="2.67876">
        <ele>94</ele>
        <time>2015-12-16T18:52:38Z</time>
      </trkpt>
      <trkpt lat="48.40838" lon="2.67901">
        <ele>94</ele>
        <time>2015-12-16T18:54:38Z</time>
      </trkpt>
      <trkpt lat="48.40842" lon="2.67913">
        <ele>94</ele>
        <time>2015-12-16T18:56:38Z</time>
      </trkpt>
      <trkpt lat="48.4085" lon="2.67932">
        <ele>93</ele>
        <time>2015-12-16T18:58:38Z</time>
      </trkpt>
      <trkpt lat="48.40859" lon="2.67966">
        <ele>93</ele>
        <time>2015-12-16T19:00:38Z</time>
      </trkpt>
      <trkpt lat="48.40885" lon="2.68037">
        <ele>93</ele>
        <time>2015-12-16T19:02:38Z</time>
      </trkpt>
      <trkpt lat="48.40902" lon="2.68096">
        <ele>93</ele>
        <time>2015-12-16T19:04:38Z</time>
      </trkpt>
      <trkpt lat="48.40915" lon="2.68133">
        <ele>93</ele>
        <time>2015-12-16T19:06:38Z</time>
      </trkpt>
      <trkpt lat="48.40926" lon="2.68165">
        <ele>93</ele>
        <time>2015-12-16T19:08:38Z</time>
      </trkpt>
      <trkpt lat="48.40937" lon="2.68175">
        <ele>94</ele>
        <time>2015-12-16T19:10:38Z</time>
      </trkpt>
      <trkpt lat="48.4094" lon="2.68175">
        <ele>94</ele>
        <time>2015-12-16T19:12:38Z</time>
      </trkpt>
      <trkpt lat="48.40948" lon="2.6817">
        <ele>94</ele>
        <time>2015-12-16T19:14:38Z</time>
      </trkpt>
      <trkpt lat="48.40953" lon="2.68154">
        <ele>94</ele>
        <time>2015-12-16T19:16:38Z</time>
      </trkpt>
      <trkpt lat="48.40957" lon="2.68145">
        <ele>94</ele>
        <time>2015-12-16T19:18:38Z</time>
      </trkpt>
      <trkpt lat="48.40975" lon="2.68111">
        <ele>95</ele>
        <time>2015-12-16T19:20:38Z</time>
      </trkpt>
      <trkpt lat="48.41036" lon="2.68015">
        <ele>98</ele>
        <time>2015-12-16T19:22:38Z</time>
      </trkpt>
      <trkpt lat="48.41055" lon="2.67988">
        <ele>98</ele>
        <time>2015-12-16T19:24:38Z</time>
      </trkpt>
      <trkpt lat="48.41069" lon="2.67962">
        <ele>99</ele>
        <time>2015-12-16T19:26:38Z</time>
      </trkpt>
      <trkpt lat="48.41091" lon="2.67925">
        <ele>100</ele>
        <time>2015-12-16T19:28:38Z</time>
      </trkpt>
      <trkpt lat="48.41115" lon="2.67889">
        <ele>101</ele>
        <time>2015-12-16T19:30:38Z</time>
      </trkpt>
      <trkpt lat="48.41138" lon="2.67851">
        <ele>102</ele>
        <time>2015-12-16T19:32:38Z</time>
      </trkpt>
      <trkpt lat="48.41163" lon="2.6781">
        <ele>104</ele>
        <time>2015-12-16T19:34:38Z</time>
      </trkpt>
      <trkpt lat="48.41198" lon="2.67758">
        <ele>105</ele>
        <time>2015-12-16T19:36:38Z</time>
      </trkpt>
      <trkpt lat="48.41217" lon="2.67728">
        <ele>106</ele>
        <time>2015-12-16T19:38:38Z</time>
      </trkpt>
      <trkpt lat="48.41233" lon="2.67701">
        <ele>108</ele>
        <time>2015-12-16T19:40:38Z</time>
      </trkpt>
      <trkpt lat="48.41256" lon="2.67665">
        <ele>110</ele>
        <time>2015-12-16T19:42:38Z</time>
      </trkpt>
      <trkpt lat="48.41279" lon="2.67634">
        <ele>111</ele>
        <time>2015-12-16T19:44:38Z</time>
      </trkpt>
      <trkpt lat="48.41304" lon="2.67595">
        <ele>111</ele>
        <time>2015-12-16T19:46:38Z</time>
      </trkpt>
      <trkpt lat="48.41314" lon="2.67578">
        <ele>111</ele>
        <time>2015-12-16T19:48:38Z</time>
      </trkpt>
      <trkpt lat="48.41346" lon="2.6753">
        <ele>113</ele>
        <time>2015-12-16T19:50:38Z</time>
      </trkpt>
      <trkpt lat="48.4135" lon="2.6752">
        <ele>113</ele>
        <time>2015-12-16T19:52:38Z</time>
      </trkpt>
      <trkpt lat="48.41346" lon="2.67506">
        <ele>113</ele>
        <time>2015-12-16T19:54:38Z</time>
      </trkpt>
      <trkpt lat="48.41346" lon="2.67479">
        <ele>112</ele>
        <time>2015-12-16T19:56:38Z</time>
      </trkpt>
      <trkpt lat="48.41347" lon="2.67418">
        <ele>111</ele>
        <time>2015-12-16T19:58:38Z</time>
      </trkpt>
      <trkpt lat="48.41351" lon="2.67395">
        <ele>112</ele>
        <time>2015-12-16T20:00:38Z</time>
      </trkpt>
      <trkpt lat="48.41349" lon="2.67363">
        <ele>113</ele>
        <time>2015-12-16T20:02:38Z</time>
      </trkpt>
      <trkpt lat="48.41321" lon="2.67285">
        <ele>112</ele>
        <time>2015-12-16T20:04:38Z</time>
      </trkpt>
      <trkpt lat="48.41311" lon="2.67235">
        <ele>113</ele>
        <time>2015-12-16T20:06:38Z</time>
      </trkpt>
      <trkpt lat="48.41305" lon="2.67212">
        <ele>114</ele>
        <time>2015-12-16T20:08:38Z</time>
      </trkpt>
      <trkpt lat="48.41302" lon="2.67176">
        <ele>115</ele>
        <time>2015-12-16T20:10:38Z</time>
      </trkpt>
      <trkpt lat="48.41301" lon="2.6717">
        <ele>115</ele>
        <time>2015-12-16T20:12:38Z</time>
      </trkpt>
      <trkpt lat="48.41295" lon="2.67131">
        <ele>115</ele>
        <time>2015-12-16T20:14:38Z</time>
      </trkpt>
      <trkpt lat="48.41291" lon="2.67108">
        <ele>114</ele>
        <time>2015-12-16T20:16:38Z</time>
      </trkpt>
      <trkpt lat="48.41289" lon="2.67077">
        <ele>114</ele>
        <time>2015-12-16T20:18:38Z</time>
      </trkpt>
      <trkpt lat="48.41289" lon="2.67064">
        <ele>113</ele>
        <time>2015-12-16T20:20:38Z</time>
      </trkpt>
      <trkpt lat="48.41287" lon="2.67027">
        <ele>112</ele>
        <time>2015-12-16T20:22:38Z</time>
      </trkpt>
      <trkpt lat="48.41297" lon="2.66989">
        <ele>111</ele>
        <time>2015-12-16T20:24:38Z</time>
      </trkpt>
      <trkpt lat="48.41299" lon="2.66982">
        <ele>111</ele>
        <time>2015-12-16T20:26:38Z</time>
      </trkpt>
      <trkpt lat="48.41305" lon="2.66961">
        <ele>111</ele>
        <time>2015-12-16T20:28:38Z</time>
      </trkpt>
      <trkpt lat="48.41309" lon="2.66936">
        <ele>109</ele>
        <time>2015-12-16T20:30:38Z</time>
      </trkpt>
      <trkpt lat="48.41327" lon="2.66857">
        <ele>108</ele>
        <time>2015-12-16T20:32:38Z</time>
      </trkpt>
      <trkpt lat="48.41343" lon="2.66822">
        <ele>108</ele>
        <time>2015-12-16T20:34:38Z</time>
      </trkpt>
      <trkpt lat="48.41367" lon="2.6678">
        <ele>109</ele>
        <time>2015-12-16T20:36:38Z</time>
      </trkpt>
      <trkpt lat="48.41378" lon="2.66756">
        <ele>110</ele>
        <time>2015-12-16T20:38:38Z</time>
      </trkpt>
      <trkpt lat="48.41381" lon="2.66721">
        <ele>112</ele>
        <time>2015-12-16T20:40:38Z</time>
      </trkpt>
      <trkpt lat="48.41376" lon="2.66701">
        <ele>113</ele>
        <time>2015-12-16T20:42:38Z</time>
      </trkpt>
      <trkpt lat="48.41372" lon="2.66685">
        <ele>114</ele>
        <time>2015-12-16T20:44:38Z</time>
      </trkpt>
      <trkpt lat="48.41366" lon="2.66676">
        <ele>115</ele>
        <time>2015-12-16T20:46:38Z</time>
      </trkpt>
      <trkpt lat="48.41366" lon="2.66665">
        <ele>116</ele>
        <time>2015-12-16T20:48:38Z</time>
      </trkpt>
      <trkpt lat="48.41373" lon="2.66639">
        <ele>118</ele>
        <time>2015-12-16T20:50:38Z</time>
      </trkpt>
      <trkpt lat="48.4138" lon="2.66618">
        <ele>120</ele>
        <time>2015-12-16T20:52:38Z</time>
      </trkpt>
      <trkpt lat="48.41384" lon="2.666">
        <ele>122</ele>
        <time>2015-12-16T20:54:38Z</time>
      </trkpt>
      <trkpt lat="48.41391" lon="2.66581">
        <ele>123</ele>
        <time>2015-12-16T20:56:38Z</time>
      </trkpt>
      <trkpt lat="48.41396" lon="2.66562">
        <ele>124</ele>
        <time>2015-12-16T20:58:38Z</time>
      </trkpt>
      <trkpt lat="48.41404" lon="2.66538">
        <ele>126</ele>
        <time>2015-12-16T21:00:38Z</time>
      </trkpt>
      <trkpt lat="48.4141" lon="2.66521">
        <ele>127</ele>
        <time>2015-12-16T21:02:38Z</time>
      </trkpt>
      <trkpt lat="48.41417" lon="2.66497">
        <ele>129</ele>
        <time>2015-12-16T21:04:38Z</time>
      </trkpt>
      <trkpt lat="48.41428" lon="2.6647">
        <ele>129</ele>
        <time>2015-12-16T21:06:38Z</time>
      </trkpt>
      <trkpt lat="48.41447" lon="2.66416">
        <ele>131</ele>
        <time>2015-12-16T21:08:38Z</time>
      </trkpt>
      <trkpt lat="48.41456" lon="2.66386">
        <ele>132</ele>
        <time>2015-12-16T21:10:38Z</time>
      </trkpt>
      <trkpt lat="48.41471" lon="2.66328">
        <ele>132</ele>
        <time>2015-12-16T21:12:38Z</time>
      </trkpt>
      <trkpt lat="48.41487" lon="2.66281">
        <ele>133</ele>
        <time>2015-12-16T21:14:38Z</time>
      </trkpt>
      <trkpt lat="48.41496" lon="2.66257">
        <ele>133</ele>
        <time>2015-12-16T21:16:38Z</time>
      </trkpt>
      <trkpt lat="48.41505" lon="2.66233">
        <ele>133</ele>
        <time>2015-12-16T21:18:38Z</time>
      </trkpt>
      <trkpt lat="48.41509" lon="2.66227">
        <ele>133</ele>
        <time>2015-12-16T21:20:38Z</time>
      </trkpt>
      <trkpt lat="48.41506" lon="2.66208">
        <ele>134</ele>
        <time>2015-12-16T21:22:38Z</time>
      </trkpt>
      <trkpt lat="48.41504" lon="2.66205">
        <ele>134</ele>
        <time>2015-12-16T21:24:38Z</time>
      </trkpt>
      <trkpt lat="48.41489" lon="2.66184">
        <ele>134</ele>
        <time>2015-12-16T21:26:38Z</time>
      </trkpt>
      <trkpt lat="48.41465" lon="2.66142">
        <ele>134</ele>
        <time>2015-12-16T21:28:38Z</time>
      </trkpt>
      <trkpt lat="48.41448" lon="2.66109">
        <ele>133</ele>
        <time>2015-12-16T21:30:38Z</time>
      </trkpt>
      <trkpt lat="48.4143" lon="2.6608">
        <ele>132</ele>
        <time>2015-12-16T21:32:38Z</time>
      </trkpt>
      <trkpt lat="48.41417" lon="2.66057">
        <ele>132</ele>
        <time>2015-12-16T21:34:38Z</time>
      </trkpt>
      <trkpt lat="48.41396" lon="2.66019">
        <ele>133</ele>
        <time>2015-12-16T21:36:38Z</time>
      </trkpt>
      <trkpt lat="48.41354" lon="2.65951">
        <ele>133</ele>
        <time>2015-12-16T21:38:38Z</time>
      </trkpt>
      <trkpt lat="48.41342" lon="2.65929">
        <ele>133</ele>
        <time>2015-12-16T21:40:38Z</time>
      </trkpt>
      <trkpt lat="48.41334" lon="2.65921">
        <ele>133</ele>
        <time>2015-12-16T21:42:38Z</time>
      </trkpt>
      <trkpt lat="48.41324" lon="2.65904">
        <ele>133</ele>
        <time>2015-12-16T21:44:38Z</time>
      </trkpt>
      <trkpt lat="48.41323" lon="2.65898">
        <ele>133</ele>
        <time>2015-12-16T21:46:38Z</time>
      </trkpt>
      <trkpt lat="48.41328" lon="2.6589">
        <ele>132</ele>
        <time>2015-12-16T21:48:38Z</time>
      </trkpt>
      <trkpt lat="48.41328" lon="2.65887">
        <ele>132</ele>
        <time>2015-12-16T21:50:38Z</time>
      </trkpt>
      <trkpt lat="48.41322" lon="2.65877">
        <ele>132</ele>
        <time>2015-12-16T21:52:38Z</time>
      </trkpt>
      <trkpt lat="48.41319" lon="2.65851">
        <ele>131</ele>
        <time>2015-12-16T21:54:38Z</time>
      </trkpt>
      <trkpt lat="48.41322" lon="2.65824">
        <ele>131</ele>
        <time>2015-12-16T21:56:38Z</time>
      </trkpt>
      <trkpt lat="48.41328" lon="2.65801">
        <ele>131</ele>
        <time>2015-12-16T21:58:38Z</time>
      </trkpt>
      <trkpt lat="48.41337" lon="2.65777">
        <ele>132</ele>
        <time>2015-12-16T22:00:38Z</time>
      </trkpt>
      <trkpt lat="48.41345" lon="2.65761">
        <ele>132</ele>
        <time>2015-12-16T22:02:38Z</time>
      </trkpt>
      <trkpt lat="48.41366" lon="2.6573">
        <ele>133</ele>
        <time>2015-12-16T22:04:38Z</time>
      </trkpt>
      <trkpt lat="48.4138" lon="2.65716">
        <ele>133</ele>
        <time>2015-12-16T22:06:38Z</time>
      </trkpt>
      <trkpt lat="48.41392" lon="2.6571">
        <ele>134</ele>
        <time>2015-12-16T22:08:38Z</time>
      </trkpt>
      <trkpt lat="48.41405" lon="2.65701">
        <ele>134</ele>
        <time>2015-12-16T22:10:38Z</time>
      </trkpt>
      <trkpt lat="48.41419" lon="2.657">
        <ele>134</ele>
        <time>2015-12-16T22:12:38Z</time>
      </trkpt>
      <trkpt lat="48.41442" lon="2.65694">
        <ele>136</ele>
        <time>2015-12-16T22:14:38Z</time>
      </trkpt>
      <trkpt lat="48.41463" lon="2.65684">
        <ele>137</ele>
        <time>2015-12-16T22:16:38Z</time>
      </trkpt>
      <trkpt lat="48.41478" lon="2.65682">
        <ele>138</ele>
        <time>2015-12-16T22:18:38Z</time>
      </trkpt>
      <trkpt lat="48.41491" lon="2.65684">
        <ele>138</ele>
        <time>2015-12-16T22:20:38Z</time>
      </trkpt>
      <trkpt lat="48.41505" lon="2.65679">
        <ele>139</ele>
        <time>2015-12-16T22:22:38Z</time>
      </trkpt>
      <trkpt lat="48.41513" lon="2.65682">
        <ele>139</ele>
        <time>2015-12-16T22:24:38Z</time>
      </trkpt>
      <trkpt lat="48.41522" lon="2.65689">
        <ele>139</ele>
        <time>2015-12-16T22:26:38Z</time>
      </trkpt>
      <trkpt lat="48.41528" lon="2.65718">
        <ele>139</ele>
        <time>2015-12-16T22:28:38Z</time>
      </trkpt>
      <trkpt lat="48.41533" lon="2.65745">
        <ele>138</ele>
        <time>2015-12-16T22:30:38Z</time>
      </trkpt>
      <trkpt lat="48.41544" lon="2.65769">
        <ele>138</ele>
        <time>2015-12-16T22:32:38Z</time>
      </trkpt>
      <trkpt lat="48.41561" lon="2.658">
        <ele>137</ele>
        <time>2015-12-16T22:34:38Z</time>
      </trkpt>
      <trkpt lat="48.41567" lon="2.65824">
        <ele>136</ele>
        <time>2015-12-16T22:36:38Z</time>
      </trkpt>
      <trkpt lat="48.41582" lon="2.65833">
        <ele>136</ele>
        <time>2015-12-16T22:38:38Z</time>
      </trkpt>
      <trkpt lat="48.4168" lon="2.65879">
        <ele>138</ele>
        <time>2015-12-16T22:40:38Z</time>
      </trkpt>
      <trkpt lat="48.41702" lon="2.65882">
        <ele>139</ele>
        <time>2015-12-16T22:42:38Z</time>
      </trkpt>
      <trkpt lat="48.41725" lon="2.65855">
        <ele>139</ele>
        <time>2015-12-16T22:44:38Z</time>
      </trkpt>
      <trkpt lat="48.41734" lon="2.65841">
        <ele>139</ele>
        <time>2015-12-16T22:46:38Z</time>
      </trkpt>
      <trkpt lat="48.4177" lon="2.65773">
        <ele>139</ele>
        <time>2015-12-16T22:48:38Z</time>
      </trkpt>
      <trkpt lat="48.41769" lon="2.65752">
        <ele>139</ele>
        <time>2015-12-16T22:50:38Z</time>
      </trkpt>
      <trkpt lat="48.41755" lon="2.65732">
        <ele>139</ele>
        <time>2015-12-16T22:52:38Z</time>
      </trkpt>
      <trkpt lat="48.41738" lon="2.65706">
        <ele>138</ele>
        <time>2015-12-16T22:54:38Z</time>
      </trkpt>
      <trkpt lat="48.41687" lon="2.656">
        <ele>136</ele>
        <time>2015-12-16T22:56:38Z</time>
      </trkpt>
      <trkpt lat="48.4167" lon="2.65562">
        <ele>136</ele>
        <time>2015-12-16T22:58:38Z</time>
      </trkpt>
      <trkpt lat="48.41662" lon="2.65544">
        <ele>136</ele>
        <time>2015-12-16T23:00:38Z</time>
      </trkpt>
      <trkpt lat="48.41649" lon="2.65502">
        <ele>137</ele>
        <time>2015-12-16T23:02:38Z</time>
      </trkpt>
      <trkpt lat="48.41643" lon="2.65456">
        <ele>136</ele>
        <time>2015-12-16T23:04:38Z</time>
      </trkpt>
      <trkpt lat="48.41635" lon="2.65392">
        <ele>136</ele>
        <time>2015-12-16T23:06:38Z</time>
      </trkpt>
      <trkpt lat="48.41634" lon="2.65353">
        <ele>136</ele>
        <time>2015-12-16T23:08:38Z</time>
      </trkpt>
      <trkpt lat="48.41637" lon="2.65291">
        <ele>137</ele>
        <time>2015-12-16T23:10:38Z</time>
      </trkpt>
      <trkpt lat="48.41648" lon="2.65211">
        <ele>138</ele>
        <time>2015-12-16T23:12:38Z</time>
      </trkpt>
      <trkpt lat="48.41652" lon="2.65169">
        <ele>138</ele>
        <time>2015-12-16T23:14:38Z</time>
      </trkpt>
      <trkpt lat="48.41659" lon="2.6513">
        <ele>139</ele>
        <time>2015-12-16T23:16:38Z</time>
      </trkpt>
      <trkpt lat="48.41661" lon="2.65124">
        <ele>139</ele>
        <time>2015-12-16T23:18:38Z</time>
      </trkpt>
      <trkpt lat="48.41668" lon="2.65095">
        <ele>139</ele>
        <time>2015-12-16T23:20:38Z</time>
      </trkpt>
      <trkpt lat="48.41672" lon="2.65083">
        <ele>139</ele>
        <time>2015-12-16T23:22:38Z</time>
      </trkpt>
      <trkpt lat="48.41688" lon="2.65051">
        <ele>139</ele>
        <time>2015-12-16T23:24:38Z</time>
      </trkpt>
      <trkpt lat="48.41705" lon="2.65023">
        <ele>139</ele>
        <time>2015-12-16T23:26:38Z</time>
      </trkpt>
      <trkpt lat="48.41713" lon="2.64999">
        <ele>139</ele>
        <time>2015-12-16T23:28:38Z</time>
      </trkpt>
      <trkpt lat="48.41723" lon="2.64974">
        <ele>140</ele>
        <time>2015-12-16T23:30:38Z</time>
      </trkpt>
      <trkpt lat="48.41732" lon="2.64942">
        <ele>140</ele>
        <time>2015-12-16T23:32:38Z</time>
      </trkpt>
      <trkpt lat="48.41738" lon="2.64911">
        <ele>140</ele>
        <time>2015-12-16T23:34:38Z</time>
      </trkpt>
      <trkpt lat="48.4174" lon="2.6489">
        <ele>141</ele>
        <time>2015-12-16T23:36:38Z</time>
      </trkpt>
      <trkpt lat="48.41734" lon="2.6485">
        <ele>142</ele>
        <time>2015-12-16T23:38:38Z</time>
      </trkpt>
      <trkpt lat="48.41729" lon="2.64841">
        <ele>142</ele>
        <time>2015-12-16T23:40:38Z</time>
      </trkpt>
      <trkpt lat="48.41727" lon="2.64822">
        <ele>143</ele>
        <time>2015-12-16T23:42:38Z</time>
      </trkpt>
      <trkpt lat="48.41728" lon="2.64807">
        <ele>143</ele>
        <time>2015-12-16T23:44:38Z</time>
      </trkpt>
      <trkpt lat="48.41731" lon="2.64801">
        <ele>143</ele>
        <time>2015-12-16T23:46:38Z</time>
      </trkpt>
      <trkpt lat="48.41724" lon="2.64792">
        <ele>143</ele>
        <time>2015-12-16T23:48:38Z</time>
      </trkpt>
      <trkpt lat="48.41722" lon="2.64776">
        <ele>143</ele>
        <time>2015-12-16T23:50:38Z</time>
      </trkpt>
      <trkpt lat="48.41719" lon="2.64769">
        <ele>143</ele>
        <time>2015-12-16T23:52:38Z</time>
      </trkpt>
      <trkpt lat="48.41708" lon="2.64746">
        <ele>143</ele>
        <time>2015-12-16T23:54:38Z</time>
      </trkpt>
      <trkpt lat="48.41697" lon="2.64724">
        <ele>142</ele>
        <time>2015-12-16T23:56:38Z</time>
      </trkpt>
      <trkpt lat="48.41687" lon="2.64699">
        <ele>141</ele>
        <time>2015-12-16T23:58:38Z</time>
      </trkpt>
      <trkpt lat="48.41675" lon="2.64673">
        <ele>139</ele>
        <time>2015-12-17T00:00:38Z</time>
      </trkpt>
      <trkpt lat="48.41662" lon="2.64648">
        <ele>137</ele>
        <time>2015-12-17T00:02:38Z</time>
      </trkpt>
      <trkpt lat="48.41647" lon="2.64625">
        <ele>136</ele>
        <time>2015-12-17T00:04:38Z</time>
      </trkpt>
      <trkpt lat="48.41636" lon="2.64603">
        <ele>135</ele>
        <time>2015-12-17T00:06:38Z</time>
      </trkpt>
      <trkpt lat="48.41625" lon="2.64578">
        <ele>133</ele>
        <time>2015-12-17T00:08:38Z</time>
      </trkpt>
      <trkpt lat="48.41615" lon="2.64562">
        <ele>133</ele>
        <time>2015-12-17T00:10:38Z</time>
      </trkpt>
      <trkpt lat="48.41598" lon="2.64544">
        <ele>133</ele>
        <time>2015-12-17T00:12:38Z</time>
      </trkpt>
      <trkpt lat="48.41573" lon="2.64524">
        <ele>133</ele>
        <time>2015-12-17T00:14:38Z</time>
      </trkpt>
      <trkpt lat="48.41564" lon="2.64513">
        <ele>133</ele>
        <time>2015-12-17T00:16:38Z</time>
      </trkpt>
      <trkpt lat="48.41569" lon="2.64441">
        <ele>133</ele>
        <time>2015-12-17T00:18:38Z</time>
      </trkpt>
      <trkpt lat="48.41569" lon="2.64434">
        <ele>133</ele>
        <time>2015-12-17T00:20:38Z</time>
      </trkpt>
      <trkpt lat="48.41572" lon="2.64412">
        <ele>133</ele>
        <time>2015-12-17T00:22:38Z</time>
      </trkpt>
      <trkpt lat="48.41573" lon="2.64382">
        <ele>133</ele>
        <time>2015-12-17T00:24:38Z</time>
      </trkpt>
      <trkpt lat="48.41564" lon="2.64368">
        <ele>133</ele>
        <time>2015-12-17T00:26:38Z</time>
      </trkpt>
      <trkpt lat="48.41545" lon="2.64329">
        <ele>132</ele>
        <time>2015-12-17T00:28:38Z</time>
      </trkpt>
      <trkpt lat="48.41534" lon="2.64295">
        <ele>132</ele>
        <time>2015-12-17T00:30:38Z</time>
      </trkpt>
      <trkpt lat="48.41524" lon="2.64255">
        <ele>132</ele>
        <time>2015-12-17T00:32:38Z</time>
      </trkpt>
      <trkpt lat="48.41514" lon="2.64223">
        <ele>132</ele>
        <time>2015-12-17T00:34:38Z</time>
      </trkpt>
      <trkpt lat="48.41503" lon="2.64194">
        <ele>132</ele>
        <time>2015-12-17T00:36:38Z</time>
      </trkpt>
      <trkpt lat="48.41494" lon="2.6416">
        <ele>132</ele>
        <time>2015-12-17T00:38:38Z</time>
      </trkpt>
      <trkpt lat="48.41489" lon="2.64148">
        <ele>132</ele>
        <time>2015-12-17T00:40:38Z</time>
      </trkpt>
      <trkpt lat="48.41493" lon="2.64122">
        <ele>131</ele>
        <time>2015-12-17T00:42:38Z</time>
      </trkpt>
      <trkpt lat="48.41503" lon="2.64115">
        <ele>131</ele>
        <time>2015-12-17T00:44:38Z</time>
      </trkpt>
      <trkpt lat="48.41528" lon="2.64098">
        <ele>131</ele>
        <time>2015-12-17T00:46:38Z</time>
      </trkpt>
      <trkpt lat="48.41686" lon="2.63984">
        <ele>133</ele>
        <time>2015-12-17T00:48:38Z</time>
      </trkpt>
      <trkpt lat="48.41735" lon="2.6395">
        <ele>137</ele>
        <time>2015-12-17T00:50:38Z</time>
      </trkpt>
      <trkpt lat="48.41765" lon="2.63928">
        <ele>140</ele>
        <time>2015-12-17T00:52:38Z</time>
      </trkpt>
      <trkpt lat="48.41775" lon="2.63929">
        <ele>140</ele>
        <time>2015-12-17T00:54:38Z</time>
      </trkpt>
      <trkpt lat="48.41827" lon="2.6397">
        <ele>140</ele>
        <time>2015-12-17T00:56:38Z</time>
      </trkpt>
      <trkpt lat="48.41834" lon="2.63976">
        <ele>140</ele>
        <time>2015-12-17T00:58:38Z</time>
      </trkpt>
      <trkpt lat="48.41856" lon="2.63991">
        <ele>139</ele>
        <time>2015-12-17T01:00:38Z</time>
      </trkpt>
      <trkpt lat="48.41906" lon="2.64031">
        <ele>138</ele>
        <time>2015-12-17T01:02:38Z</time>
      </trkpt>
      <trkpt lat="48.41984" lon="2.64097">
        <ele>140</ele>
        <time>2015-12-17T01:04:38Z</time>
      </trkpt>
      <trkpt lat="48.42008" lon="2.64113">
        <ele>140</ele>
        <time>2015-12-17T01:06:38Z</time>
      </trkpt>
      <trkpt lat="48.42027" lon="2.64131">
        <ele>139</ele>
        <time>2015-12-17T01:08:38Z</time>
      </trkpt>
      <trkpt lat="48.42042" lon="2.64173">
        <ele>139</ele>
        <time>2015-12-17T01:10:38Z</time>
      </trkpt>
      <trkpt lat="48.42053" lon="2.64228">
        <ele>139</ele>
        <time>2015-12-17T01:12:38Z</time>
      </trkpt>
      <trkpt lat="48.42062" lon="2.6428">
        <ele>140</ele>
        <time>2015-12-17T01:14:38Z</time>
      </trkpt>
      <trkpt lat="48.42068" lon="2.64327">
        <ele>141</ele>
        <time>2015-12-17T01:16:38Z</time>
      </trkpt>
      <trkpt lat="48.42071" lon="2.64364">
        <ele>141</ele>
        <time>2015-12-17T01:18:38Z</time>
      </trkpt>
      <trkpt lat="48.42074" lon="2.64381">
        <ele>141</ele>
        <time>2015-12-17T01:20:38Z</time>
      </trkpt>
      <trkpt lat="48.42079" lon="2.64429">
        <ele>141</ele>
        <time>2015-12-17T01:22:38Z</time>
      </trkpt>
      <trkpt lat="48.42081" lon="2.64445">
        <ele>141</ele>
        <time>2015-12-17T01:24:38Z</time>
      </trkpt>
      <trkpt lat="48.42086" lon="2.64519">
        <ele>141</ele>
        <time>2015-12-17T01:26:38Z</time>
      </trkpt>
      <trkpt lat="48.42085" lon="2.64571">
        <ele>141</ele>
        <time>2015-12-17T01:28:38Z</time>
      </trkpt>
      <trkpt lat="48.42085" lon="2.64612">
        <ele>141</ele>
        <time>2015-12-17T01:30:38Z</time>
      </trkpt>
      <trkpt lat="48.42082" lon="2.64641">
        <ele>141</ele>
        <time>2015-12-17T01:32:38Z</time>
      </trkpt>
      <trkpt lat="48.42081" lon="2.64659">
        <ele>141</ele>
        <time>2015-12-17T01:34:38Z</time>
      </trkpt>
      <trkpt lat="48.42082" lon="2.64699">
        <ele>141</ele>
        <time>2015-12-17T01:36:38Z</time>
      </trkpt>
      <trkpt lat="48.42086" lon="2.64722">
        <ele>140</ele>
        <time>2015-12-17T01:38:38Z</time>
      </trkpt>
      <trkpt lat="48.42113" lon="2.64817">
        <ele>140</ele>
        <time>2015-12-17T01:40:38Z</time>
      </trkpt>
      <trkpt lat="48.42127" lon="2.64862">
        <ele>140</ele>
        <time>2015-12-17T01:42:38Z</time>
      </trkpt>
      <trkpt lat="48.42138" lon="2.64899">
        <ele>140</ele>
        <time>2015-12-17T01:44:38Z</time>
      </trkpt>
      <trkpt lat="48.42142" lon="2.6493">
        <ele>140</ele>
        <time>2015-12-17T01:46:38Z</time>
      </trkpt>
      <trkpt lat="48.42143" lon="2.64965">
        <ele>140</ele>
        <time>2015-12-17T01:48:38Z</time>
      </trkpt>
      <trkpt lat="48.42142" lon="2.64994">
        <ele>139</ele>
        <time>2015-12-17T01:50:38Z</time>
      </trkpt>
      <trkpt lat="48.42143" lon="2.65012">
        <ele>139</ele>
        <time>2015-12-17T01:52:38Z</time>
      </trkpt>
      <trkpt lat="48.42143" lon="2.65049">
        <ele>140</ele>
        <time>2015-12-17T01:54:38Z</time>
      </trkpt>
      <trkpt lat="48.42143" lon="2.65081">
        <ele>140</ele>
        <time>2015-12-17T01:56:38Z</time>
      </trkpt>
      <trkpt lat="48.42143" lon="2.65103">
        <ele>140</ele>
        <time>2015-12-17T01:58:38Z</time>
      </trkpt>
      <trkpt lat="48.42142" lon="2.65108">
        <ele>139</ele>
        <time>2015-12-17T02:00:38Z</time>
      </trkpt>
      <trkpt lat="48.42153" lon="2.65097">
        <ele>140</ele>
        <time>2015-12-17T02:02:38Z</time>
      </trkpt>
      <trkpt lat="48.4217" lon="2.6508">
        <ele>140</ele>
        <time>2015-12-17T02:04:38Z</time>
      </trkpt>
      <trkpt lat="48.4219" lon="2.65053">
        <ele>140</ele>
        <time>2015-12-17T02:06:38Z</time>
      </trkpt>
      <trkpt lat="48.42196" lon="2.65044">
        <ele>140</ele>
        <time>2015-12-17T02:08:38Z</time>
      </trkpt>
      <trkpt lat="48.42201" lon="2.65024">
        <ele>140</ele>
        <time>2015-12-17T02:10:38Z</time>
      </trkpt>
      <trkpt lat="48.42214" lon="2.64984">
        <ele>140</ele>
        <time>2015-12-17T02:12:38Z</time>
      </trkpt>
      <trkpt lat="48.42217" lon="2.64978">
        <ele>140</ele>
        <time>2015-12-17T02:14:38Z</time>
      </trkpt>
      <trkpt lat="48.42232" lon="2.64946">
        <ele>140</ele>
        <time>2015-12-17T02:16:38Z</time>
      </trkpt>
      <trkpt lat="48.42244" lon="2.64926">
        <ele>140</ele>
        <time>2015-12-17T02:18:38Z</time>
      </trkpt>
      <trkpt lat="48.42264" lon="2.64901">
        <ele>140</ele>
        <time>2015-12-17T02:20:38Z</time>
      </trkpt>
      <trkpt lat="48.42281" lon="2.64884">
        <ele>140</ele>
        <time>2015-12-17T02:22:38Z</time>
      </trkpt>
      <trkpt lat="48.42307" lon="2.64874">
        <ele>141</ele>
        <time>2015-12-17T02:24:38Z</time>
      </trkpt>
      <trkpt lat="48.42319" lon="2.64872">
        <ele>141</ele>
        <time>2015-12-17T02:26:38Z</time>
      </trkpt>
      <trkpt lat="48.42336" lon="2.64871">
        <ele>141</ele>
        <time>2015-12-17T02:28:38Z</time>
      </trkpt>
      <trkpt lat="48.42341" lon="2.64867">
        <ele>141</ele>
        <time>2015-12-17T02:30:38Z</time>
      </trkpt>
      <trkpt lat="48.42351" lon="2.64855">
        <ele>141</ele>
        <time>2015-12-17T02:32:38Z</time>
      </trkpt>
      <trkpt lat="48.42375" lon="2.64838">
        <ele>141</ele>
        <time>2015-12-17T02:34:38Z</time>
      </trkpt>
      <trkpt lat="48.424" lon="2.64846">
        <ele>141</ele>
        <time>2015-12-17T02:36:38Z</time>
      </trkpt>
      <trkpt lat="48.42426" lon="2.64845">
        <ele>140</ele>
        <time>2015-12-17T02:38:38Z</time>
      </trkpt>
      <trkpt lat="48.42454" lon="2.64838">
        <ele>138</ele>
        <time>2015-12-17T02:40:38Z</time>
      </trkpt>
      <trkpt lat="48.4246" lon="2.64829">
        <ele>138</ele>
        <time>2015-12-17T02:42:38Z</time>
      </trkpt>
      <trkpt lat="48.42469" lon="2.64813">
        <ele>137</ele>
        <time>2015-12-17T02:44:38Z</time>
      </trkpt>
      <trkpt lat="48.42474" lon="2.6479">
        <ele>135</ele>
        <time>2015-12-17T02:46:38Z</time>
      </trkpt>
      <trkpt lat="48.42485" lon="2.64765">
        <ele>133</ele>
        <time>2015-12-17T02:48:38Z</time>
      </trkpt>
      <trkpt lat="48.42505" lon="2.64757">
        <ele>131</ele>
        <time>2015-12-17T02:50:38Z</time>
      </trkpt>
      <trkpt lat="48.42531" lon="2.64754">
        <ele>130</ele>
        <time>2015-12-17T02:52:38Z</time>
      </trkpt>
      <trkpt lat="48.42541" lon="2.64754">
        <ele>129</ele>
        <time>2015-12-17T02:54:38Z</time>
      </trkpt>
      <trkpt lat="48.42559" lon="2.64751">
        <ele>128</ele>
        <time>2015-12-17T02:56:38Z</time>
      </trkpt>
      <trkpt lat="48.42569" lon="2.64752">
        <ele>128</ele>
        <time>2015-12-17T02:58:38Z</time>
      </trkpt>
      <trkpt lat="48.4258" lon="2.64747">
        <ele>127</ele>
        <time>2015-12-17T03:00:38Z</time>
      </trkpt>
      <trkpt lat="48.42597" lon="2.6473">
        <ele>128</ele>
        <time>2015-12-17T03:02:38Z</time>
      </trkpt>
      <trkpt lat="48.4261" lon="2.64716">
        <ele>129</ele>
        <time>2015-12-17T03:04:38Z</time>
      </trkpt>
      <trkpt lat="48.42626" lon="2.64706">
        <ele>130</ele>
        <time>2015-12-17T03:06:38Z</time>
      </trkpt>
      <trkpt lat="48.42642" lon="2.64693">
        <ele>132</ele>
        <time>2015-12-17T03:08:38Z</time>
      </trkpt>
      <trkpt lat="48.42659" lon="2.64684">
        <ele>134</ele>
        <time>2015-12-17T03:10:38Z</time>
      </trkpt>
      <trkpt lat="48.4267" lon="2.64673">
        <ele>135</ele>
        <time>2015-12-17T03:12:38Z</time>
      </trkpt>
      <trkpt lat="48.4269" lon="2.64654">
        <ele>137</ele>
        <time>2015-12-17T03:14:38Z</time>
      </trkpt>
      <trkpt lat="48.42723" lon="2.64627">
        <ele>140</ele>
        <time>2015-12-17T03:16:38Z</time>
      </trkpt>
      <trkpt lat="48.42742" lon="2.64614">
        <ele>141</ele>
        <time>2015-12-17T03:18:38Z</time>
      </trkpt>
      <trkpt lat="48.42755" lon="2.64598">
        <ele>142</ele>
        <time>2015-12-17T03:20:38Z</time>
      </trkpt>
      <trkpt lat="48.42774" lon="2.64561">
        <ele>142</ele>
        <time>2015-12-17T03:22:38Z</time>
      </trkpt>
      <trkpt lat="48.4278" lon="2.64548">
        <ele>142</ele>
        <time>2015-12-17T03:24:38Z</time>
      </trkpt>
      <trkpt lat="48.42795" lon="2.64512">
        <ele>141</ele>
        <time>2015-12-17T03:26:38Z</time>
      </trkpt>
      <trkpt lat="48.42827" lon="2.6444">
        <ele>141</ele>
        <time>2015-12-17T03:28:38Z</time>
      </trkpt>
      <trkpt lat="48.42835" lon="2.6442">
        <ele>141</ele>
        <time>2015-12-17T03:30:38Z</time>
      </trkpt>
      <trkpt lat="48.42857" lon="2.64374">
        <ele>139</ele>
        <time>2015-12-17T03:32:38Z</time>
      </trkpt>
      <trkpt lat="48.42879" lon="2.64339">
        <ele>137</ele>
        <time>2015-12-17T03:34:38Z</time>
      </trkpt>
      <trkpt lat="48.42891" lon="2.64306">
        <ele>137</ele>
        <time>2015-12-17T03:36:38Z</time>
      </trkpt>
      <trkpt lat="48.42896" lon="2.64281">
        <ele>137</ele>
        <time>2015-12-17T03:38:38Z</time>
      </trkpt>
      <trkpt lat="48.42903" lon="2.64247">
        <ele>137</ele>
        <time>2015-12-17T03:40:38Z</time>
      </trkpt>
      <trkpt lat="48.42907" lon="2.64216">
        <ele>137</ele>
        <time>2015-12-17T03:42:38Z</time>
      </trkpt>
      <trkpt lat="48.42909" lon="2.64196">
        <ele>137</ele>
        <time>2015-12-17T03:44:38Z</time>
      </trkpt>
      <trkpt lat="48.42913" lon="2.6417">
        <ele>136</ele>
        <time>2015-12-17T03:46:38Z</time>
      </trkpt>
      <trkpt lat="48.42919" lon="2.64146">
        <ele>138</ele>
        <time>2015-12-17T03:48:38Z</time>
      </trkpt>
      <trkpt lat="48.42926" lon="2.64128">
        <ele>139</ele>
        <time>2015-12-17T03:50:38Z</time>
      </trkpt>
      <trkpt lat="48.42937" lon="2.64106">
        <ele>140</ele>
        <time>2015-12-17T03:52:38Z</time>
      </trkpt>
      <trkpt lat="48.42946" lon="2.64067">
        <ele>141</ele>
        <time>2015-12-17T03:54:38Z</time>
      </trkpt>
      <trkpt lat="48.42951" lon="2.64039">
        <ele>140</ele>
        <time>2015-12-17T03:56:38Z</time>
      </trkpt>
      <trkpt lat="48.42957" lon="2.64015">
        <ele>140</ele>
        <time>2015-12-17T03:58:38Z</time>
      </trkpt>
      <trkpt lat="48.42963" lon="2.63989">
        <ele>140</ele>
        <time>2015-12-17T04:00:38Z</time>
      </trkpt>
      <trkpt lat="48.42964" lon="2.63987">
        <ele>140</ele>
        <time>2015-12-17T04:02:38Z</time>
      </trkpt>
      <trkpt lat="48.42968" lon="2.63957">
        <ele>139</ele>
        <time>2015-12-17T04:04:38Z</time>
      </trkpt>
      <trkpt lat="48.42966" lon="2.63923">
        <ele>139</ele>
        <time>2015-12-17T04:06:38Z</time>
      </trkpt>
      <trkpt lat="48.42962" lon="2.63906">
        <ele>140</ele>
        <time>2015-12-17T04:08:38Z</time>
      </trkpt>
      <trkpt lat="48.42967" lon="2.63877">
        <ele>140</ele>
        <time>2015-12-17T04:10:38Z</time>
      </trkpt>
      <trkpt lat="48.42976" lon="2.63846">
        <ele>139</ele>
        <time>2015-12-17T04:12:38Z</time>
      </trkpt>
      <trkpt lat="48.42999" lon="2.63768">
        <ele>138</ele>
        <time>2015-12-17T04:14:38Z</time>
      </trkpt>
      <trkpt lat="48.43009" lon="2.63752">
        <ele>137</ele>
        <time>2015-12-17T04:16:38Z</time>
      </trkpt>
      <trkpt lat="48.4302" lon="2.63733">
        <ele>137</ele>
        <time>2015-12-17T04:18:38Z</time>
      </trkpt>
      <trkpt lat="48.43038" lon="2.63721">
        <ele>137</ele>
        <time>2015-12-17T04:20:38Z</time>
      </trkpt>
      <trkpt lat="48.43053" lon="2.63717">
        <ele>136</ele>
        <time>2015-12-17T04:22:38Z</time>
      </trkpt>
      <trkpt lat="48.43069" lon="2.63725">
        <ele>135</ele>
        <time>2015-12-17T04:24:38Z</time>
      </trkpt>
      <trkpt lat="48.43082" lon="2.63723">
        <ele>134</ele>
        <time>2015-12-17T04:26:38Z</time>
      </trkpt>
      <trkpt lat="48.43084" lon="2.63721">
        <ele>134</ele>
        <time>2015-12-17T04:28:38Z</time>
      </trkpt>
      <trkpt lat="48.4309" lon="2.63699">
        <ele>133</ele>
        <time>2015-12-17T04:30:38Z</time>
      </trkpt>
      <trkpt lat="48.43093" lon="2.63684">
        <ele>134</ele>
        <time>2015-12-17T04:32:38Z</time>
      </trkpt>
      <trkpt lat="48.43094" lon="2.63676">
        <ele>134</ele>
        <time>2015-12-17T04:34:38Z</time>
      </trkpt>
      <trkpt lat="48.43092" lon="2.63665">
        <ele>134</ele>
        <time>2015-12-17T04:36:38Z</time>
      </trkpt>
      <trkpt lat="48.43092" lon="2.63663">
        <ele>134</ele>
        <time>2015-12-17T04:38:38Z</time>
      </trkpt>
      <trkpt lat="48.43094" lon="2.63654">
        <ele>134</ele>
        <time>2015-12-17T04:40:38Z</time>
      </trkpt>
      <trkpt lat="48.43097" lon="2.63645">
        <ele>135</ele>
        <time>2015-12-17T04:42:38Z</time>
      </trkpt>
      <trkpt lat="48.43099" lon="2.63636">
        <ele>135</ele>
        <time>2015-12-17T04:44:38Z</time>
      </trkpt>
      <trkpt lat="48.43098" lon="2.63622">
        <ele>135</ele>
        <time>2015-12-17T04:46:38Z</time>
      </trkpt>
      <trkpt lat="48.43101" lon="2.6361">
        <ele>136</ele>
        <time>2015-12-17T04:48:38Z</time>
      </trkpt>
      <trkpt lat="48.43109" lon="2.63598">
        <ele>136</ele>
        <time>2015-12-17T04:50:38Z</time>
      </trkpt>
      <trkpt lat="48.43109" lon="2.63597">
        <ele>136</ele>
        <time>2015-12-17T04:52:38Z</time>
      </trkpt>
      <trkpt lat="48.43116" lon="2.63589">
        <ele>136</ele>
        <time>2015-12-17T04:54:38Z</time>
      </trkpt>
      <trkpt lat="48.43135" lon="2.63555">
        <ele>135</ele>
        <time>2015-12-17T04:56:38Z</time>
      </trkpt>
      <trkpt lat="48.4314" lon="2.63507">
        <ele>135</ele>
        <time>2015-12-17T04:58:38Z</time>
      </trkpt>
      <trkpt lat="48.4314" lon="2.63451">
        <ele>136</ele>
        <time>2015-12-17T05:00:38Z</time>
      </trkpt>
      <trkpt lat="48.43171" lon="2.63386">
        <ele>135</ele>
        <time>2015-12-17T05:02:38Z</time>
      </trkpt>
      <trkpt lat="48.43207" lon="2.63415">
        <ele>133</ele>
        <time>2015-12-17T05:04:38Z</time>
      </trkpt>
      <trkpt lat="48.43215" lon="2.63451">
        <ele>131</ele>
        <time>2015-12-17T05:06:38Z</time>
      </trkpt>
      <trkpt lat="48.43241" lon="2.63468">
        <ele>129</ele>
        <time>2015-12-17T05:08:38Z</time>
      </trkpt>
      <trkpt lat="48.4331" lon="2.63486">
        <ele>119</ele>
        <time>2015-12-17T05:10:38Z</time>
      </trkpt>
      <trkpt lat="48.43355" lon="2.63482">
        <ele>115</ele>
        <time>2015-12-17T05:12:38Z</time>
      </trkpt>
      <trkpt lat="48.43381" lon="2.63432">
        <ele>112</ele>
        <time>2015-12-17T05:14:38Z</time>
      </trkpt>
      <trkpt lat="48.43457" lon="2.63325">
        <ele>106</ele>
        <time>2015-12-17T05:16:38Z</time>
      </trkpt>
      <trkpt lat="48.43489" lon="2.63209">
        <ele>104</ele>
        <time>2015-12-17T05:18:38Z</time>
      </trkpt>
      <trkpt lat="48.43523" lon="2.6307">
        <ele>106</ele>
        <time>2015-12-17T05:20:38Z</time>
      </trkpt>
      <trkpt lat="48.43472" lon="2.62981">
        <ele>102</ele>
        <time>2015-12-17T05:22:38Z</time>
      </trkpt>
      <trkpt lat="48.43553" lon="2.62791">
        <ele>98</ele>
        <time>2015-12-17T05:24:38Z</time>
      </trkpt>
      <trkpt lat="48.43591" lon="2.62678">
        <ele>98</ele>
        <time>2015-12-17T05:26:38Z</time>
      </trkpt>
      <trkpt lat="48.43607" lon="2.62542">
        <ele>99</ele>
        <time>2015-12-17T05:28:38Z</time>
      </trkpt>
      <trkpt lat="48.43697" lon="2.62408">
        <ele>97</ele>
        <time>2015-12-17T05:30:38Z</time>
      </trkpt>
      <trkpt lat="48.43872" lon="2.62402">
        <ele>95</ele>
        <time>2015-12-17T05:32:38Z</time>
      </trkpt>
      <trkpt lat="48.44096" lon="2.6244">
        <ele>92</ele>
        <time>2015-12-17T05:34:38Z</time>
      </trkpt>
      <trkpt lat="48.44128" lon="2.62521">
        <ele>92</ele>
        <time>2015-12-17T05:36:38Z</time>
      </trkpt>
      <trkpt lat="48.44165" lon="2.62634">
        <ele>90</ele>
        <time>2015-12-17T05:38:38Z</time>
      </trkpt>
      <trkpt lat="48.44221" lon="2.62783">
        <ele>87</ele>
        <time>2015-12-17T05:40:38Z</time>
      </trkpt>
      <trkpt lat="48.44384" lon="2.63191">
        <ele>90</ele>
        <time>2015-12-17T05:42:38Z</time>
      </trkpt>
      <trkpt lat="48.44464" lon="2.63493">
        <ele>91</ele>
        <time>2015-12-17T05:44:38Z</time>
      </trkpt>
      <trkpt lat="48.44512" lon="2.63612">
        <ele>89</ele>
        <time>2015-12-17T05:46:38Z</time>
      </trkpt>
      <trkpt lat="48.44533" lon="2.63674">
        <ele>90</ele>
        <time>2015-12-17T05:48:38Z</time>
      </trkpt>
      <trkpt lat="48.44511" lon="2.63743">
        <ele>91</ele>
        <time>2015-12-17T05:50:38Z</time>
      </trkpt>
      <trkpt lat="48.44546" lon="2.63732">
        <ele>90</ele>
        <time>2015-12-17T05:52:38Z</time>
      </trkpt>
      <trkpt lat="48.44567" lon="2.63732">
        <ele>89</ele>
        <time>2015-12-17T05:54:38Z</time>
      </trkpt>
      <trkpt lat="48.44584" lon="2.63739">
        <ele>88</ele>
        <time>2015-12-17T05:56:38Z</time>
      </trkpt>
      <trkpt lat="48.4459" lon="2.63745">
        <ele>88</ele>
        <time>2015-12-17T05:58:38Z</time>
      </trkpt>
      <trkpt lat="48.4461" lon="2.63795">
        <ele>91</ele>
        <time>2015-12-17T06:00:38Z</time>
      </trkpt>
      <trkpt lat="48.44613" lon="2.63818">
        <ele>92</ele>
        <time>2015-12-17T06:02:38Z</time>
      </trkpt>
      <trkpt lat="48.44611" lon="2.63846">
        <ele>93</ele>
        <time>2015-12-17T06:04:38Z</time>
      </trkpt>
      <trkpt lat="48.44606" lon="2.63873">
        <ele>93</ele>
        <time>2015-12-17T06:06:38Z</time>
      </trkpt>
      <trkpt lat="48.44593" lon="2.63948">
        <ele>95</ele>
        <time>2015-12-17T06:08:38Z</time>
      </trkpt>
      <trkpt lat="48.44586" lon="2.63982">
        <ele>96</ele>
        <time>2015-12-17T06:10:38Z</time>
      </trkpt>
      <trkpt lat="48.44578" lon="2.64016">
        <ele>97</ele>
        <time>2015-12-17T06:12:38Z</time>
      </trkpt>
      <trkpt lat="48.44567" lon="2.64075">
        <ele>98</ele>
        <time>2015-12-17T06:14:38Z</time>
      </trkpt>
      <trkpt lat="48.44558" lon="2.64101">
        <ele>98</ele>
        <time>2015-12-17T06:16:38Z</time>
      </trkpt>
      <trkpt lat="48.44552" lon="2.64131">
        <ele>98</ele>
        <time>2015-12-17T06:18:38Z</time>
      </trkpt>
      <trkpt lat="48.44543" lon="2.64184">
        <ele>98</ele>
        <time>2015-12-17T06:20:38Z</time>
      </trkpt>
      <trkpt lat="48.44548" lon="2.64213">
        <ele>99</ele>
        <time>2015-12-17T06:22:38Z</time>
      </trkpt>
      <trkpt lat="48.44548" lon="2.64226">
        <ele>99</ele>
        <time>2015-12-17T06:24:38Z</time>
      </trkpt>
      <trkpt lat="48.44543" lon="2.64264">
        <ele>100</ele>
        <time>2015-12-17T06:26:38Z</time>
      </trkpt>
      <trkpt lat="48.44543" lon="2.64284">
        <ele>100</ele>
        <time>2015-12-17T06:28:38Z</time>
      </trkpt>
      <trkpt lat="48.44543" lon="2.64335">
        <ele>100</ele>
        <time>2015-12-17T06:30:38Z</time>
      </trkpt>
      <trkpt lat="48.44548" lon="2.64357">
        <ele>100</ele>
        <time>2015-12-17T06:32:38Z</time>
      </trkpt>
      <trkpt lat="48.44562" lon="2.64372">
        <ele>100</ele>
        <time>2015-12-17T06:34:38Z</time>
      </trkpt>
      <trkpt lat="48.44578" lon="2.64377">
        <ele>101</ele>
        <time>2015-12-17T06:36:38Z</time>
      </trkpt>
      <trkpt lat="48.44616" lon="2.64364">
        <ele>103</ele>
        <time>2015-12-17T06:38:38Z</time>
      </trkpt>
      <trkpt lat="48.44622" lon="2.64366">
        <ele>104</ele>
        <time>2015-12-17T06:40:38Z</time>
      </trkpt>
      <trkpt lat="48.44648" lon="2.64382">
        <ele>105</ele>
        <time>2015-12-17T06:42:38Z</time>
      </trkpt>
      <trkpt lat="48.4465" lon="2.64397">
        <ele>105</ele>
        <time>2015-12-17T06:44:38Z</time>
      </trkpt>
      <trkpt lat="48.44641" lon="2.64435">
        <ele>104</ele>
        <time>2015-12-17T06:46:38Z</time>
      </trkpt>
      <trkpt lat="48.44649" lon="2.64459">
        <ele>105</ele>
        <time>2015-12-17T06:48:38Z</time>
      </trkpt>
      <trkpt lat="48.44665" lon="2.64465">
        <ele>106</ele>
        <time>2015-12-17T06:50:38Z</time>
      </trkpt>
      <trkpt lat="48.44682" lon="2.64463">
        <ele>107</ele>
        <time>2015-12-17T06:52:38Z</time>
      </trkpt>
      <trkpt lat="48.44699" lon="2.64471">
        <ele>109</ele>
        <time>2015-12-17T06:54:38Z</time>
      </trkpt>
      <trkpt lat="48.4472" lon="2.6449">
        <ele>111</ele>
        <time>2015-12-17T06:56:38Z</time>
      </trkpt>
      <trkpt lat="48.44771" lon="2.64529">
        <ele>118</ele>
        <time>2015-12-17T06:58:38Z</time>
      </trkpt>
      <trkpt lat="48.44785" lon="2.64529">
        <ele>119</ele>
        <time>2015-12-17T07:00:38Z</time>
      </trkpt>
      <trkpt lat="48.44794" lon="2.64524">
        <ele>120</ele>
        <time>2015-12-17T07:02:38Z</time>
      </trkpt>
      <trkpt lat="48.44805" lon="2.64532">
        <ele>122</ele>
        <time>2015-12-17T07:04:38Z</time>
      </trkpt>
      <trkpt lat="48.44811" lon="2.64556">
        <ele>123</ele>
        <time>2015-12-17T07:06:38Z</time>
      </trkpt>
      <trkpt lat="48.44819" lon="2.64569">
        <ele>124</ele>
        <time>2015-12-17T07:08:38Z</time>
      </trkpt>
      <trkpt lat="48.44826" lon="2.64569">
        <ele>124</ele>
        <time>2015-12-17T07:10:38Z</time>
      </trkpt>
      <trkpt lat="48.44842" lon="2.64557">
        <ele>126</ele>
        <time>2015-12-17T07:12:38Z</time>
      </trkpt>
      <trkpt lat="48.44855" lon="2.64542">
        <ele>128</ele>
        <time>2015-12-17T07:14:38Z</time>
      </trkpt>
      <trkpt lat="48.44868" lon="2.64523">
        <ele>129</ele>
        <time>2015-12-17T07:16:38Z</time>
      </trkpt>
      <trkpt lat="48.44879" lon="2.64521">
        <ele>131</ele>
        <time>2015-12-17T07:18:38Z</time>
      </trkpt>
      <trkpt lat="48.44888" lon="2.64531">
        <ele>132</ele>
        <time>2015-12-17T07:20:38Z</time>
      </trkpt>
      <trkpt lat="48.44893" lon="2.64546">
        <ele>132</ele>
        <time>2015-12-17T07:22:38Z</time>
      </trkpt>
      <trkpt lat="48.44898" lon="2.6457">
        <ele>132</ele>
        <time>2015-12-17T07:24:38Z</time>
      </trkpt>
      <trkpt lat="48.44906" lon="2.64601">
        <ele>134</ele>
        <time>2015-12-17T07:26:38Z</time>
      </trkpt>
      <trkpt lat="48.44914" lon="2.64622">
        <ele>137</ele>
        <time>2015-12-17T07:28:38Z</time>
      </trkpt>
      <trkpt lat="48.44942" lon="2.64654">
        <ele>141</ele>
        <time>2015-12-17T07:30:38Z</time>
      </trkpt>
      <trkpt lat="48.44948" lon="2.6467">
        <ele>142</ele>
        <time>2015-12-17T07:32:38Z</time>
      </trkpt>
      <trkpt lat="48.44952" lon="2.6469">
        <ele>143</ele>
        <time>2015-12-17T07:34:38Z</time>
      </trkpt>
      <trkpt lat="48.44953" lon="2.64699">
        <ele>144</ele>
        <time>2015-12-17T07:36:38Z</time>
      </trkpt>
      <trkpt lat="48.44946" lon="2.64707">
        <ele>143</ele>
        <time>2015-12-17T07:38:38Z</time>
      </trkpt>
      <trkpt lat="48.44918" lon="2.64713">
        <ele>142</ele>
        <time>2015-12-17T07:40:38Z</time>
      </trkpt>
      <trkpt lat="48.44903" lon="2.64731">
        <ele>142</ele>
        <time>2015-12-17T07:42:38Z</time>
      </trkpt>
      <trkpt lat="48.44886" lon="2.64772">
        <ele>143</ele>
        <time>2015-12-17T07:44:38Z</time>
      </trkpt>
      <trkpt lat="48.44841" lon="2.6489">
        <ele>143</ele>
        <time>2015-12-17T07:46:38Z</time>
      </trkpt>
      <trkpt lat="48.44825" lon="2.64938">
        <ele>142</ele>
        <time>2015-12-17T07:48:38Z</time>
      </trkpt>
      <trkpt lat="48.44777" lon="2.65067">
        <ele>141</ele>
        <time>2015-12-17T07:50:38Z</time>
      </trkpt>
      <trkpt lat="48.44775" lon="2.65102">
        <ele>141</ele>
        <time>2015-12-17T07:52:38Z</time>
      </trkpt>
      <trkpt lat="48.44779" lon="2.65116">
        <ele>141</ele>
        <time>2015-12-17T07:54:38Z</time>
      </trkpt>
      <trkpt lat="48.44797" lon="2.65162">
        <ele>141</ele>
        <time>2015-12-17T07:56:38Z</time>
      </trkpt>
      <trkpt lat="48.44802" lon="2.65174">
        <ele>140</ele>
        <time>2015-12-17T07:58:38Z</time>
      </trkpt>
      <trkpt lat="48.44833" lon="2.65256">
        <ele>140</ele>
        <time>2015-12-17T08:00:38Z</time>
      </trkpt>
      <trkpt lat="48.44858" lon="2.6529">
        <ele>141</ele>
        <time>2015-12-17T08:02:38Z</time>
      </trkpt>
      <trkpt lat="48.44872" lon="2.65316">
        <ele>140</ele>
        <time>2015-12-17T08:04:38Z</time>
      </trkpt>
      <trkpt lat="48.44887" lon="2.65337">
        <ele>140</ele>
        <time>2015-12-17T08:06:38Z</time>
      </trkpt>
      <trkpt lat="48.44896" lon="2.65367">
        <ele>140</ele>
        <time>2015-12-17T08:08:38Z</time>
      </trkpt>
      <trkpt lat="48.44901" lon="2.65405">
        <ele>139</ele>
        <time>2015-12-17T08:10:38Z</time>
      </trkpt>
      <trkpt lat="48.44899" lon="2.6542">
        <ele>138</ele>
        <time>2015-12-17T08:12:38Z</time>
      </trkpt>
      <trkpt lat="48.44887" lon="2.65473">
        <ele>139</ele>
        <time>2015-12-17T08:14:38Z</time>
      </trkpt>
      <trkpt lat="48.44873" lon="2.65525">
        <ele>139</ele>
        <time>2015-12-17T08:16:38Z</time>
      </trkpt>
      <trkpt lat="48.44859" lon="2.65569">
        <ele>139</ele>
        <time>2015-12-17T08:18:38Z</time>
      </trkpt>
      <trkpt lat="48.44845" lon="2.65619">
        <ele>139</ele>
        <time>2015-12-17T08:20:38Z</time>
      </trkpt>
      <trkpt lat="48.44832" lon="2.65662">
        <ele>138</ele>
        <time>2015-12-17T08:22:38Z</time>
      </trkpt>
      <trkpt lat="48.44817" lon="2.65713">
        <ele>138</ele>
        <time>2015-12-17T08:24:38Z</time>
      </trkpt>
      <trkpt lat="48.44806" lon="2.65748">
        <ele>138</ele>
        <time>2015-12-17T08:26:38Z</time>
      </trkpt>
      <trkpt lat="48.44795" lon="2.65792">
        <ele>139</ele>
        <time>2015-12-17T08:28:38Z</time>
      </trkpt>
      <trkpt lat="48.44784" lon="2.65835">
        <ele>139</ele>
        <time>2015-12-17T08:30:38Z</time>
      </trkpt>
      <trkpt lat="48.44764" lon="2.65902">
        <ele>138</ele>
        <time>2015-12-17T08:32:38Z</time>
      </trkpt>
      <trkpt lat="48.44758" lon="2.65924">
        <ele>138</ele>
        <time>2015-12-17T08:34:38Z</time>
      </trkpt>
      <trkpt lat="48.44734" lon="2.66012">
        <ele>140</ele>
        <time>2015-12-17T08:36:38Z</time>
      </trkpt>
      <trkpt lat="48.4473" lon="2.66028">
        <ele>140</ele>
        <time>2015-12-17T08:38:38Z</time>
      </trkpt>
      <trkpt lat="48.44729" lon="2.66061">
        <ele>142</ele>
        <time>2015-12-17T08:40:38Z</time>
      </trkpt>
      <trkpt lat="48.44739" lon="2.66108">
        <ele>142</ele>
        <time>2015-12-17T08:42:38Z</time>
      </trkpt>
      <trkpt lat="48.44745" lon="2.66146">
        <ele>142</ele>
        <time>2015-12-17T08:44:38Z</time>
      </trkpt>
      <trkpt lat="48.44755" lon="2.66194">
        <ele>142</ele>
        <time>2015-12-17T08:46:38Z</time>
      </trkpt>
      <trkpt lat="48.44764" lon="2.66244">
        <ele>142</ele>
        <time>2015-12-17T08:48:38Z</time>
      </trkpt>
      <trkpt lat="48.44776" lon="2.66301">
        <ele>144</ele>
        <time>2015-12-17T08:50:38Z</time>
      </trkpt>
      <trkpt lat="48.44783" lon="2.66347">
        <ele>144</ele>
        <time>2015-12-17T08:52:38Z</time>
      </trkpt>
      <trkpt lat="48.44792" lon="2.66395">
        <ele>144</ele>
        <time>2015-12-17T08:54:38Z</time>
      </trkpt>
      <trkpt lat="48.44793" lon="2.664">
        <ele>144</ele>
        <time>2015-12-17T08:56:38Z</time>
      </trkpt>
      <trkpt lat="48.44801" lon="2.66433">
        <ele>144</ele>
        <time>2015-12-17T08:58:38Z</time>
      </trkpt>
      <trkpt lat="48.44816" lon="2.66449">
        <ele>144</ele>
        <time>2015-12-17T09:00:38Z</time>
      </trkpt>
      <trkpt lat="48.44993" lon="2.66625">
        <ele>147</ele>
        <time>2015-12-17T09:02:38Z</time>
      </trkpt>
      <trkpt lat="48.45008" lon="2.66641">
        <ele>147</ele>
        <time>2015-12-17T09:04:38Z</time>
      </trkpt>
      <trkpt lat="48.45033" lon="2.66662">
        <ele>146</ele>
        <time>2015-12-17T09:06:38Z</time>
      </trkpt>
      <trkpt lat="48.45061" lon="2.66687">
        <ele>145</ele>
        <time>2015-12-17T09:08:38Z</time>
      </trkpt>
      <trkpt lat="48.4515" lon="2.66774">
        <ele>144</ele>
        <time>2015-12-17T09:10:38Z</time>
      </trkpt>
      <trkpt lat="48.45269" lon="2.66888">
        <ele>138</ele>
        <time>2015-12-17T09:12:38Z</time>
      </trkpt>
      <trkpt lat="48.45273" lon="2.6689">
        <ele>138</ele>
        <time>2015-12-17T09:14:38Z</time>
      </trkpt>
      <trkpt lat="48.45279" lon="2.66875">
        <ele>138</ele>
        <time>2015-12-17T09:16:38Z</time>
      </trkpt>
      <trkpt lat="48.45284" lon="2.66858">
        <ele>138</ele>
        <time>2015-12-17T09:18:38Z</time>
      </trkpt>
      <trkpt lat="48.45292" lon="2.66836">
        <ele>138</ele>
        <time>2015-12-17T09:20:38Z</time>
      </trkpt>
      <trkpt lat="48.45308" lon="2.66813">
        <ele>138</ele>
        <time>2015-12-17T09:22:38Z</time>
      </trkpt>
      <trkpt lat="48.45347" lon="2.66776">
        <ele>138</ele>
        <time>2015-12-17T09:24:38Z</time>
      </trkpt>
      <trkpt lat="48.45359" lon="2.66768">
        <ele>137</ele>
        <time>2015-12-17T09:26:38Z</time>
      </trkpt>
      <trkpt lat="48.45385" lon="2.66764">
        <ele>136</ele>
        <time>2015-12-17T09:28:38Z</time>
      </trkpt>
      <trkpt lat="48.45407" lon="2.66782">
        <ele>134</ele>
        <time>2015-12-17T09:30:38Z</time>
      </trkpt>
      <trkpt lat="48.45412" lon="2.66788">
        <ele>134</ele>
        <time>2015-12-17T09:32:38Z</time>
      </trkpt>
      <trkpt lat="48.45425" lon="2.66808">
        <ele>133</ele>
        <time>2015-12-17T09:34:38Z</time>
      </trkpt>
      <trkpt lat="48.45443" lon="2.66818">
        <ele>132</ele>
        <time>2015-12-17T09:36:38Z</time>
      </trkpt>
      <trkpt lat="48.45454" lon="2.66807">
        <ele>132</ele>
        <time>2015-12-17T09:38:38Z</time>
      </trkpt>
      <trkpt lat="48.45456" lon="2.66783">
        <ele>132</ele>
        <time>2015-12-17T09:40:38Z</time>
      </trkpt>
      <trkpt lat="48.45452" lon="2.66759">
        <ele>133</ele>
        <time>2015-12-17T09:42:38Z</time>
      </trkpt>
      <trkpt lat="48.45443" lon="2.66734">
        <ele>133</ele>
        <time>2015-12-17T09:44:38Z</time>
      </trkpt>
      <trkpt lat="48.45418" lon="2.66691">
        <ele>135</ele>
        <time>2015-12-17T09:46:38Z</time>
      </trkpt>
      <trkpt lat="48.45401" lon="2.66655">
        <ele>135</ele>
        <time>2015-12-17T09:48:38Z</time>
      </trkpt>
      <trkpt lat="48.45393" lon="2.66626">
        <ele>135</ele>
        <time>2015-12-17T09:50:38Z</time>
      </trkpt>
      <trkpt lat="48.45391" lon="2.66599">
        <ele>135</ele>
        <time>2015-12-17T09:52:38Z</time>
      </trkpt>
      <trkpt lat="48.45396" lon="2.66574">
        <ele>134</ele>
        <time>2015-12-17T09:54:38Z</time>
      </trkpt>
      <trkpt lat="48.45401" lon="2.66562">
        <ele>134</ele>
        <time>2015-12-17T09:56:38Z</time>
      </trkpt>
      <trkpt lat="48.4541" lon="2.66546">
        <ele>134</ele>
        <time>2015-12-17T09:58:38Z</time>
      </trkpt>
      <trkpt lat="48.45412" lon="2.66521">
        <ele>134</ele>
        <time>2015-12-17T10:00:38Z</time>
      </trkpt>
      <trkpt lat="48.45408" lon="2.6651">
        <ele>134</ele>
        <time>2015-12-17T10:02:38Z</time>
      </trkpt>
      <trkpt lat="48.45392" lon="2.66482">
        <ele>134</ele>
        <time>2015-12-17T10:04:38Z</time>
      </trkpt>
      <trkpt lat="48.45371" lon="2.66438">
        <ele>133</ele>
        <time>2015-12-17T10:06:38Z</time>
      </trkpt>
      <trkpt lat="48.45357" lon="2.66402">
        <ele>134</ele>
        <time>2015-12-17T10:08:38Z</time>
      </trkpt>
      <trkpt lat="48.45356" lon="2.66396">
        <ele>134</ele>
        <time>2015-12-17T10:10:38Z</time>
      </trkpt>
      <trkpt lat="48.4536" lon="2.66338">
        <ele>136</ele>
        <time>2015-12-17T10:12:38Z</time>
      </trkpt>
      <trkpt lat="48.45361" lon="2.66299">
        <ele>136</ele>
        <time>2015-12-17T10:14:38Z</time>
      </trkpt>
      <trkpt lat="48.45362" lon="2.66246">
        <ele>136</ele>
        <time>2015-12-17T10:16:38Z</time>
      </trkpt>
      <trkpt lat="48.45364" lon="2.66216">
        <ele>136</ele>
        <time>2015-12-17T10:18:38Z</time>
      </trkpt>
      <trkpt lat="48.45376" lon="2.66201">
        <ele>137</ele>
        <time>2015-12-17T10:20:38Z</time>
      </trkpt>
      <trkpt lat="48.45427" lon="2.66162">
        <ele>137</ele>
        <time>2015-12-17T10:22:38Z</time>
      </trkpt>
      <trkpt lat="48.45436" lon="2.66155">
        <ele>137</ele>
        <time>2015-12-17T10:24:38Z</time>
      </trkpt>
      <trkpt lat="48.45436" lon="2.66155">
        <ele>137</ele>
        <time>2015-12-17T10:26:38Z</time>
      </trkpt>
      <trkpt lat="48.45433" lon="2.66156">
        <ele>137</ele>
        <time>2015-12-17T10:28:38Z</time>
      </trkpt>
      <trkpt lat="48.45434" lon="2.66156">
        <ele>137</ele>
        <time>2015-12-17T10:30:38Z</time>
      </trkpt>
      <trkpt lat="48.45433" lon="2.66158">
        <ele>137</ele>
        <time>2015-12-17T10:32:38Z</time>
      </trkpt>
      <trkpt lat="48.45432" lon="2.6616">
        <ele>137</ele>
        <time>2015-12-17T10:34:38Z</time>
      </trkpt>
      <trkpt lat="48.45434" lon="2.6616">
        <ele>137</ele>
        <time>2015-12-17T10:36:38Z</time>
      </trkpt>
      <trkpt lat="48.45438" lon="2.66156">
        <ele>137</ele>
        <time>2015-12-17T10:38:38Z</time>
      </trkpt>
      <trkpt lat="48.45474" lon="2.66128">
        <ele>137</ele>
        <time>2015-12-17T10:40:38Z</time>
      </trkpt>
      <trkpt lat="48.45514" lon="2.661">
        <ele>136</ele>
        <time>2015-12-17T10:42:38Z</time>
      </trkpt>
      <trkpt lat="48.45555" lon="2.66067">
        <ele>134</ele>
        <time>2015-12-17T10:44:38Z</time>
      </trkpt>
      <trkpt lat="48.45602" lon="2.66032">
        <ele>133</ele>
        <time>2015-12-17T10:46:38Z</time>
      </trkpt>
      <trkpt lat="48.45618" lon="2.66017">
        <ele>132</ele>
        <time>2015-12-17T10:48:38Z</time>
      </trkpt>
      <trkpt lat="48.4563" lon="2.66015">
        <ele>132</ele>
        <time>2015-12-17T10:50:38Z</time>
      </trkpt>
      <trkpt lat="48.45652" lon="2.6602">
        <ele>131</ele>
        <time>2015-12-17T10:52:38Z</time>
      </trkpt>
      <trkpt lat="48.45662" lon="2.66024">
        <ele>130</ele>
        <time>2015-12-17T10:54:38Z</time>
      </trkpt>
      <trkpt lat="48.45688" lon="2.66028">
        <ele>125</ele>
        <time>2015-12-17T10:56:38Z</time>
      </trkpt>
      <trkpt lat="48.45715" lon="2.66029">
        <ele>120</ele>
        <time>2015-12-17T10:58:38Z</time>
      </trkpt>
      <trkpt lat="48.45811" lon="2.66054">
        <ele>106</ele>
        <time>2015-12-17T11:00:38Z</time>
      </trkpt>
      <trkpt lat="48.45834" lon="2.66058">
        <ele>104</ele>
        <time>2015-12-17T11:02:38Z</time>
      </trkpt>
      <trkpt lat="48.45862" lon="2.66065">
        <ele>102</ele>
        <time>2015-12-17T11:04:38Z</time>
      </trkpt>
      <trkpt lat="48.4587" lon="2.66069">
        <ele>102</ele>
        <time>2015-12-17T11:06:38Z</time>
      </trkpt>
      <trkpt lat="48.45883" lon="2.66078">
        <ele>101</ele>
        <time>2015-12-17T11:08:38Z</time>
      </trkpt>
      <trkpt lat="48.45914" lon="2.66102">
        <ele>100</ele>
        <time>2015-12-17T11:10:38Z</time>
      </trkpt>
      <trkpt lat="48.45942" lon="2.6612">
        <ele>101</ele>
        <time>2015-12-17T11:12:38Z</time>
      </trkpt>
      <trkpt lat="48.45959" lon="2.66129">
        <ele>101</ele>
        <time>2015-12-17T11:14:38Z</time>
      </trkpt>
      <trkpt lat="48.45966" lon="2.66126">
        <ele>101</ele>
        <time>2015-12-17T11:16:38Z</time>
      </trkpt>
      <trkpt lat="48.45971" lon="2.66105">
        <ele>102</ele>
        <time>2015-12-17T11:18:38Z</time>
      </trkpt>
      <trkpt lat="48.45972" lon="2.66098">
        <ele>102</ele>
        <time>2015-12-17T11:20:38Z</time>
      </trkpt>
      <trkpt lat="48.45968" lon="2.66037">
        <ele>102</ele>
        <time>2015-12-17T11:22:38Z</time>
      </trkpt>
      <trkpt lat="48.45967" lon="2.66023">
        <ele>102</ele>
        <time>2015-12-17T11:24:38Z</time>
      </trkpt>
      <trkpt lat="48.45968" lon="2.65998">
        <ele>102</ele>
        <time>2015-12-17T11:26:38Z</time>
      </trkpt>
      <trkpt lat="48.45973" lon="2.65951">
        <ele>103</ele>
        <time>2015-12-17T11:28:38Z</time>
      </trkpt>
      <trkpt lat="48.45982" lon="2.65907">
        <ele>104</ele>
        <time>2015-12-17T11:30:38Z</time>
      </trkpt>
      <trkpt lat="48.45985" lon="2.65888">
        <ele>105</ele>
        <time>2015-12-17T11:32:38Z</time>
      </trkpt>
      <trkpt lat="48.45995" lon="2.65843">
        <ele>104</ele>
        <time>2015-12-17T11:34:38Z</time>
      </trkpt>
      <trkpt lat="48.45996" lon="2.65835">
        <ele>104</ele>
        <time>2015-12-17T11:36:38Z</time>
      </trkpt>
      <trkpt lat="48.46009" lon="2.65782">
        <ele>105</ele>
        <time>2015-12-17T11:38:38Z</time>
      </trkpt>
      <trkpt lat="48.46017" lon="2.65744">
        <ele>106</ele>
        <time>2015-12-17T11:40:38Z</time>
      </trkpt>
      <trkpt lat="48.46031" lon="2.65695">
        <ele>108</ele>
        <time>2015-12-17T11:42:38Z</time>
      </trkpt>
      <trkpt lat="48.46035" lon="2.65656">
        <ele>110</ele>
        <time>2015-12-17T11:44:38Z</time>
      </trkpt>
      <trkpt lat="48.46043" lon="2.65625">
        <ele>111</ele>
        <time>2015-12-17T11:46:38Z</time>
      </trkpt>
      <trkpt lat="48.46053" lon="2.65575">
        <ele>114</ele>
        <time>2015-12-17T11:48:38Z</time>
      </trkpt>
      <trkpt lat="48.46058" lon="2.65537">
        <ele>114</ele>
        <time>2015-12-17T11:50:38Z</time>
      </trkpt>
      <trkpt lat="48.46064" lon="2.65503">
        <ele>114</ele>
        <time>2015-12-17T11:52:38Z</time>
      </trkpt>
      <trkpt lat="48.4607" lon="2.65473">
        <ele>113</ele>
        <time>2015-12-17T11:54:38Z</time>
      </trkpt>
      <trkpt lat="48.46082" lon="2.65402">
        <ele>110</ele>
        <time>2015-12-17T11:56:38Z</time>
      </trkpt>
      <trkpt lat="48.46093" lon="2.65337">
        <ele>108</ele>
        <time>2015-12-17T11:58:38Z</time>
      </trkpt>
      <trkpt lat="48.46101" lon="2.6529">
        <ele>108</ele>
        <time>2015-12-17T12:00:38Z</time>
      </trkpt>
      <trkpt lat="48.46109" lon="2.65251">
        <ele>107</ele>
        <time>2015-12-17T12:02:38Z</time>
      </trkpt>
      <trkpt lat="48.46117" lon="2.65206">
        <ele>107</ele>
        <time>2015-12-17T12:04:38Z</time>
      </trkpt>
      <trkpt lat="48.46126" lon="2.65167">
        <ele>107</ele>
        <time>2015-12-17T12:06:38Z</time>
      </trkpt>
      <trkpt lat="48.46128" lon="2.65158">
        <ele>107</ele>
        <time>2015-12-17T12:08:38Z</time>
      </trkpt>
      <trkpt lat="48.46137" lon="2.65093">
        <ele>104</ele>
        <time>2015-12-17T12:10:38Z</time>
      </trkpt>
      <trkpt lat="48.46138" lon="2.6507">
        <ele>103</ele>
        <time>2015-12-17T12:12:38Z</time>
      </trkpt>
      <trkpt lat="48.46129" lon="2.65066">
        <ele>103</ele>
        <time>2015-12-17T12:14:38Z</time>
      </trkpt>
      <trkpt lat="48.46056" lon="2.65106">
        <ele>105</ele>
        <time>2015-12-17T12:16:38Z</time>
      </trkpt>
      <trkpt lat="48.46035" lon="2.65119">
        <ele>107</ele>
        <time>2015-12-17T12:18:38Z</time>
      </trkpt>
      <trkpt lat="48.45961" lon="2.65157">
        <ele>114</ele>
        <time>2015-12-17T12:20:38Z</time>
      </trkpt>
      <trkpt lat="48.45923" lon="2.65171">
        <ele>119</ele>
        <time>2015-12-17T12:22:38Z</time>
      </trkpt>
      <trkpt lat="48.45903" lon="2.65176">
        <ele>122</ele>
        <time>2015-12-17T12:24:38Z</time>
      </trkpt>
      <trkpt lat="48.45883" lon="2.6518">
        <ele>124</ele>
        <time>2015-12-17T12:26:38Z</time>
      </trkpt>
      <trkpt lat="48.45871" lon="2.65184">
        <ele>125</ele>
        <time>2015-12-17T12:28:38Z</time>
      </trkpt>
      <trkpt lat="48.45849" lon="2.65189">
        <ele>128</ele>
        <time>2015-12-17T12:30:38Z</time>
      </trkpt>
      <trkpt lat="48.45825" lon="2.65191">
        <ele>130</ele>
        <time>2015-12-17T12:32:38Z</time>
      </trkpt>
      <trkpt lat="48.45804" lon="2.65201">
        <ele>130</ele>
        <time>2015-12-17T12:34:38Z</time>
      </trkpt>
      <trkpt lat="48.45791" lon="2.65216">
        <ele>130</ele>
        <time>2015-12-17T12:36:38Z</time>
      </trkpt>
      <trkpt lat="48.45772" lon="2.65252">
        <ele>131</ele>
        <time>2015-12-17T12:38:38Z</time>
      </trkpt>
      <trkpt lat="48.45767" lon="2.65258">
        <ele>131</ele>
        <time>2015-12-17T12:40:38Z</time>
      </trkpt>
      <trkpt lat="48.4576" lon="2.65256">
        <ele>131</ele>
        <time>2015-12-17T12:42:38Z</time>
      </trkpt>
      <trkpt lat="48.4576" lon="2.65253">
        <ele>132</ele>
        <time>2015-12-17T12:44:38Z</time>
      </trkpt>
      <trkpt lat="48.45765" lon="2.65222">
        <ele>131</ele>
        <time>2015-12-17T12:46:38Z</time>
      </trkpt>
      <trkpt lat="48.45776" lon="2.65198">
        <ele>131</ele>
        <time>2015-12-17T12:48:38Z</time>
      </trkpt>
      <trkpt lat="48.45791" lon="2.65172">
        <ele>131</ele>
        <time>2015-12-17T12:50:38Z</time>
      </trkpt>
      <trkpt lat="48.45805" lon="2.65159">
        <ele>131</ele>
        <time>2015-12-17T12:52:38Z</time>
      </trkpt>
      <trkpt lat="48.45834" lon="2.65142">
        <ele>130</ele>
        <time>2015-12-17T12:54:38Z</time>
      </trkpt>
      <trkpt lat="48.45848" lon="2.65128">
        <ele>129</ele>
        <time>2015-12-17T12:56:38Z</time>
      </trkpt>
      <trkpt lat="48.45862" lon="2.65102">
        <ele>128</ele>
        <time>2015-12-17T12:58:38Z</time>
      </trkpt>
      <trkpt lat="48.45863" lon="2.65087">
        <ele>128</ele>
        <time>2015-12-17T13:00:38Z</time>
      </trkpt>
      <trkpt lat="48.45857" lon="2.65048">
        <ele>128</ele>
        <time>2015-12-17T13:02:38Z</time>
      </trkpt>
      <trkpt lat="48.45847" lon="2.65018">
        <ele>129</ele>
        <time>2015-12-17T13:04:38Z</time>
      </trkpt>
      <trkpt lat="48.4582" lon="2.64963">
        <ele>131</ele>
        <time>2015-12-17T13:06:38Z</time>
      </trkpt>
      <trkpt lat="48.45806" lon="2.64929">
        <ele>132</ele>
        <time>2015-12-17T13:08:38Z</time>
      </trkpt>
      <trkpt lat="48.45804" lon="2.64915">
        <ele>132</ele>
        <time>2015-12-17T13:10:38Z</time>
      </trkpt>
      <trkpt lat="48.45807" lon="2.64877">
        <ele>132</ele>
        <time>2015-12-17T13:12:38Z</time>
      </trkpt>
      <trkpt lat="48.45816" lon="2.64862">
        <ele>131</ele>
        <time>2015-12-17T13:14:38Z</time>
      </trkpt>
      <trkpt lat="48.45849" lon="2.64838">
        <ele>130</ele>
        <time>2015-12-17T13:16:38Z</time>
      </trkpt>
      <trkpt lat="48.4589" lon="2.64818">
        <ele>128</ele>
        <time>2015-12-17T13:18:38Z</time>
      </trkpt>
      <trkpt lat="48.45916" lon="2.64806">
        <ele>128</ele>
        <time>2015-12-17T13:20:38Z</time>
      </trkpt>
      <trkpt lat="48.4594" lon="2.64777">
        <ele>125</ele>
        <time>2015-12-17T13:22:38Z</time>
      </trkpt>
      <trkpt lat="48.45945" lon="2.64753">
        <ele>125</ele>
        <time>2015-12-17T13:24:38Z</time>
      </trkpt>
      <trkpt lat="48.45948" lon="2.64725">
        <ele>125</ele>
        <time>2015-12-17T13:26:38Z</time>
      </trkpt>
      <trkpt lat="48.45951" lon="2.64721">
        <ele>125</ele>
        <time>2015-12-17T13:28:38Z</time>
      </trkpt>
      <trkpt lat="48.4595" lon="2.64719">
        <ele>125</ele>
        <time>2015-12-17T13:30:38Z</time>
      </trkpt>
      <trkpt lat="48.4595" lon="2.64718">
        <ele>125</ele>
        <time>2015-12-17T13:32:38Z</time>
      </trkpt>
      <trkpt lat="48.4595" lon="2.6472">
        <ele>125</ele>
        <time>2015-12-17T13:34:38Z</time>
      </trkpt>
      <trkpt lat="48.45952" lon="2.64715">
        <ele>125</ele>
        <time>2015-12-17T13:36:38Z</time>
      </trkpt>
      <trkpt lat="48.45952" lon="2.64713">
        <ele>125</ele>
        <time>2015-12-17T13:38:38Z</time>
      </trkpt>
      <trkpt lat="48.4595" lon="2.64691">
        <ele>125</ele>
        <time>2015-12-17T13:40:38Z</time>
      </trkpt>
      <trkpt lat="48.45949" lon="2.64657">
        <ele>126</ele>
        <time>2015-12-17T13:42:38Z</time>
      </trkpt>
      <trkpt lat="48.45948" lon="2.64634">
        <ele>126</ele>
        <time>2015-12-17T13:44:38Z</time>
      </trkpt>
      <trkpt lat="48.45941" lon="2.64603">
        <ele>127</ele>
        <time>2015-12-17T13:46:38Z</time>
      </trkpt>
      <trkpt lat="48.45931" lon="2.64583">
        <ele>128</ele>
        <time>2015-12-17T13:48:38Z</time>
      </trkpt>
      <trkpt lat="48.45921" lon="2.64559">
        <ele>129</ele>
        <time>2015-12-17T13:50:38Z</time>
      </trkpt>
      <trkpt lat="48.45912" lon="2.6453">
        <ele>130</ele>
        <time>2015-12-17T13:52:38Z</time>
      </trkpt>
      <trkpt lat="48.45907" lon="2.6449">
        <ele>130</ele>
        <time>2015-12-17T13:54:38Z</time>
      </trkpt>
      <trkpt lat="48.45902" lon="2.64464">
        <ele>130</ele>
        <time>2015-12-17T13:56:38Z</time>
      </trkpt>
      <trkpt lat="48.459" lon="2.64422">
        <ele>130</ele>
        <time>2015-12-17T13:58:38Z</time>
      </trkpt>
      <trkpt lat="48.45902" lon="2.64391">
        <ele>130</ele>
        <time>2015-12-17T14:00:38Z</time>
      </trkpt>
      <trkpt lat="48.45904" lon="2.64378">
        <ele>130</ele>
        <time>2015-12-17T14:02:38Z</time>
      </trkpt>
      <trkpt lat="48.45921" lon="2.64323">
        <ele>129</ele>
        <time>2015-12-17T14:04:38Z</time>
      </trkpt>
      <trkpt lat="48.45926" lon="2.64304">
        <ele>128</ele>
        <time>2015-12-17T14:06:38Z</time>
      </trkpt>
      <trkpt lat="48.45931" lon="2.64284">
        <ele>127</ele>
        <time>2015-12-17T14:08:38Z</time>
      </trkpt>
      <trkpt lat="48.45936" lon="2.64256">
        <ele>126</ele>
        <time>2015-12-17T14:10:38Z</time>
      </trkpt>
      <trkpt lat="48.45935" lon="2.64236">
        <ele>126</ele>
        <time>2015-12-17T14:12:38Z</time>
      </trkpt>
      <trkpt lat="48.45933" lon="2.64213">
        <ele>127</ele>
        <time>2015-12-17T14:14:38Z</time>
      </trkpt>
      <trkpt lat="48.4594" lon="2.64181">
        <ele>126</ele>
        <time>2015-12-17T14:16:38Z</time>
      </trkpt>
      <trkpt lat="48.45939" lon="2.64157">
        <ele>126</ele>
        <time>2015-12-17T14:18:38Z</time>
      </trkpt>
      <trkpt lat="48.45938" lon="2.64149">
        <ele>126</ele>
        <time>2015-12-17T14:20:38Z</time>
      </trkpt>
      <trkpt lat="48.45929" lon="2.64129">
        <ele>126</ele>
        <time>2015-12-17T14:22:38Z</time>
      </trkpt>
      <trkpt lat="48.45896" lon="2.64122">
        <ele>129</ele>
        <time>2015-12-17T14:24:38Z</time>
      </trkpt>
      <trkpt lat="48.45867" lon="2.64117">
        <ele>130</ele>
        <time>2015-12-17T14:26:38Z</time>
      </trkpt>
      <trkpt lat="48.45837" lon="2.64118">
        <ele>132</ele>
        <time>2015-12-17T14:28:38Z</time>
      </trkpt>
      <trkpt lat="48.45815" lon="2.64117">
        <ele>134</ele>
        <time>2015-12-17T14:30:38Z</time>
      </trkpt>
      <trkpt lat="48.45797" lon="2.64103">
        <ele>134</ele>
        <time>2015-12-17T14:32:38Z</time>
      </trkpt>
      <trkpt lat="48.45784" lon="2.64075">
        <ele>134</ele>
        <time>2015-12-17T14:34:38Z</time>
      </trkpt>
      <trkpt lat="48.45772" lon="2.64041">
        <ele>134</ele>
        <time>2015-12-17T14:36:38Z</time>
      </trkpt>
      <trkpt lat="48.45762" lon="2.6401">
        <ele>134</ele>
        <time>2015-12-17T14:38:38Z</time>
      </trkpt>
      <trkpt lat="48.45756" lon="2.63975">
        <ele>134</ele>
        <time>2015-12-17T14:40:38Z</time>
      </trkpt>
      <trkpt lat="48.45756" lon="2.63929">
        <ele>133</ele>
        <time>2015-12-17T14:42:38Z</time>
      </trkpt>
      <trkpt lat="48.45756" lon="2.63899">
        <ele>132</ele>
        <time>2015-12-17T14:44:38Z</time>
      </trkpt>
      <trkpt lat="48.4576" lon="2.63872">
        <ele>129</ele>
        <time>2015-12-17T14:46:38Z</time>
      </trkpt>
      <trkpt lat="48.45758" lon="2.63842">
        <ele>127</ele>
        <time>2015-12-17T14:48:38Z</time>
      </trkpt>
      <trkpt lat="48.45752" lon="2.63835">
        <ele>128</ele>
        <time>2015-12-17T14:50:38Z</time>
      </trkpt>
      <trkpt lat="48.45738" lon="2.6384">
        <ele>129</ele>
        <time>2015-12-17T14:52:38Z</time>
      </trkpt>
      <trkpt lat="48.45732" lon="2.6385">
        <ele>129</ele>
        <time>2015-12-17T14:54:38Z</time>
      </trkpt>
      <trkpt lat="48.45714" lon="2.63897">
        <ele>133</ele>
        <time>2015-12-17T14:56:38Z</time>
      </trkpt>
      <trkpt lat="48.45703" lon="2.63918">
        <ele>135</ele>
        <time>2015-12-17T14:58:38Z</time>
      </trkpt>
      <trkpt lat="48.45696" lon="2.63924">
        <ele>136</ele>
        <time>2015-12-17T15:00:38Z</time>
      </trkpt>
      <trkpt lat="48.45665" lon="2.63933">
        <ele>137</ele>
        <time>2015-12-17T15:02:38Z</time>
      </trkpt>
      <trkpt lat="48.45645" lon="2.63931">
        <ele>136</ele>
        <time>2015-12-17T15:04:38Z</time>
      </trkpt>
      <trkpt lat="48.45626" lon="2.6391">
        <ele>135</ele>
        <time>2015-12-17T15:06:38Z</time>
      </trkpt>
      <trkpt lat="48.45623" lon="2.63903">
        <ele>134</ele>
        <time>2015-12-17T15:08:38Z</time>
      </trkpt>
      <trkpt lat="48.45618" lon="2.6389">
        <ele>134</ele>
        <time>2015-12-17T15:10:38Z</time>
      </trkpt>
      <trkpt lat="48.45599" lon="2.63872">
        <ele>132</ele>
        <time>2015-12-17T15:12:38Z</time>
      </trkpt>
      <trkpt lat="48.45594" lon="2.63873">
        <ele>132</ele>
        <time>2015-12-17T15:14:38Z</time>
      </trkpt>
      <trkpt lat="48.45579" lon="2.6388">
        <ele>133</ele>
        <time>2015-12-17T15:16:38Z</time>
      </trkpt>
      <trkpt lat="48.45556" lon="2.63872">
        <ele>134</ele>
        <time>2015-12-17T15:18:38Z</time>
      </trkpt>
      <trkpt lat="48.45552" lon="2.63868">
        <ele>133</ele>
        <time>2015-12-17T15:20:38Z</time>
      </trkpt>
      <trkpt lat="48.45527" lon="2.63853">
        <ele>134</ele>
        <time>2015-12-17T15:22:38Z</time>
      </trkpt>
      <trkpt lat="48.45503" lon="2.63854">
        <ele>135</ele>
        <time>2015-12-17T15:24:38Z</time>
      </trkpt>
      <trkpt lat="48.45484" lon="2.63844">
        <ele>136</ele>
        <time>2015-12-17T15:26:38Z</time>
      </trkpt>
      <trkpt lat="48.45462" lon="2.63804">
        <ele>136</ele>
        <time>2015-12-17T15:28:38Z</time>
      </trkpt>
      <trkpt lat="48.45448" lon="2.63783">
        <ele>136</ele>
        <time>2015-12-17T15:30:38Z</time>
      </trkpt>
      <trkpt lat="48.45434" lon="2.63744">
        <ele>135</ele>
        <time>2015-12-17T15:32:38Z</time>
      </trkpt>
      <trkpt lat="48.45433" lon="2.63737">
        <ele>135</ele>
        <time>2015-12-17T15:34:38Z</time>
      </trkpt>
      <trkpt lat="48.45426" lon="2.63683">
        <ele>133</ele>
        <time>2015-12-17T15:36:38Z</time>
      </trkpt>
      <trkpt lat="48.45408" lon="2.63646">
        <ele>132</ele>
        <time>2015-12-17T15:38:38Z</time>
      </trkpt>
      <trkpt lat="48.45388" lon="2.63636">
        <ele>132</ele>
        <time>2015-12-17T15:40:38Z</time>
      </trkpt>
      <trkpt lat="48.4536" lon="2.63642">
        <ele>133</ele>
        <time>2015-12-17T15:42:38Z</time>
      </trkpt>
      <trkpt lat="48.45314" lon="2.63665">
        <ele>136</ele>
        <time>2015-12-17T15:44:38Z</time>
      </trkpt>
      <trkpt lat="48.45293" lon="2.63661">
        <ele>136</ele>
        <time>2015-12-17T15:46:38Z</time>
      </trkpt>
      <trkpt lat="48.45282" lon="2.63646">
        <ele>135</ele>
        <time>2015-12-17T15:48:38Z</time>
      </trkpt>
      <trkpt lat="48.45266" lon="2.63616">
        <ele>133</ele>
        <time>2015-12-17T15:50:38Z</time>
      </trkpt>
      <trkpt lat="48.45247" lon="2.63601">
        <ele>133</ele>
        <time>2015-12-17T15:52:38Z</time>
      </trkpt>
      <trkpt lat="48.45216" lon="2.63608">
        <ele>135</ele>
        <time>2015-12-17T15:54:38Z</time>
      </trkpt>
      <trkpt lat="48.45198" lon="2.63588">
        <ele>135</ele>
        <time>2015-12-17T15:56:38Z</time>
      </trkpt>
      <trkpt lat="48.45196" lon="2.63582">
        <ele>134</ele>
        <time>2015-12-17T15:58:38Z</time>
      </trkpt>
      <trkpt lat="48.45186" lon="2.63564">
        <ele>133</ele>
        <time>2015-12-17T16:00:38Z</time>
      </trkpt>
      <trkpt lat="48.45174" lon="2.63572">
        <ele>135</ele>
        <time>2015-12-17T16:02:38Z</time>
      </trkpt>
      <trkpt lat="48.45173" lon="2.63592">
        <ele>136</ele>
        <time>2015-12-17T16:04:38Z</time>
      </trkpt>
      <trkpt lat="48.45174" lon="2.63614">
        <ele>137</ele>
        <time>2015-12-17T16:06:38Z</time>
      </trkpt>
      <trkpt lat="48.45166" lon="2.63626">
        <ele>138</ele>
        <time>2015-12-17T16:08:38Z</time>
      </trkpt>
      <trkpt lat="48.45134" lon="2.63651">
        <ele>135</ele>
        <time>2015-12-17T16:10:38Z</time>
      </trkpt>
      <trkpt lat="48.45117" lon="2.63675">
        <ele>135</ele>
        <time>2015-12-17T16:12:38Z</time>
      </trkpt>
      <trkpt lat="48.4511" lon="2.63693">
        <ele>135</ele>
        <time>2015-12-17T16:14:38Z</time>
      </trkpt>
      <trkpt lat="48.45093" lon="2.63731">
        <ele>135</ele>
        <time>2015-12-17T16:16:38Z</time>
      </trkpt>
      <trkpt lat="48.45082" lon="2.63787">
        <ele>135</ele>
        <time>2015-12-17T16:18:38Z</time>
      </trkpt>
      <trkpt lat="48.45079" lon="2.63848">
        <ele>135</ele>
        <time>2015-12-17T16:20:38Z</time>
      </trkpt>
      <trkpt lat="48.45079" lon="2.63856">
        <ele>135</ele>
        <time>2015-12-17T16:22:38Z</time>
      </trkpt>
      <trkpt lat="48.45081" lon="2.639">
        <ele>134</ele>
        <time>2015-12-17T16:24:38Z</time>
      </trkpt>
      <trkpt lat="48.45085" lon="2.63949">
        <ele>135</ele>
        <time>2015-12-17T16:26:38Z</time>
      </trkpt>
      <trkpt lat="48.45097" lon="2.63979">
        <ele>137</ele>
        <time>2015-12-17T16:28:38Z</time>
      </trkpt>
      <trkpt lat="48.45102" lon="2.63993">
        <ele>137</ele>
        <time>2015-12-17T16:30:38Z</time>
      </trkpt>
      <trkpt lat="48.451" lon="2.64036">
        <ele>138</ele>
        <time>2015-12-17T16:32:38Z</time>
      </trkpt>
      <trkpt lat="48.45097" lon="2.64046">
        <ele>138</ele>
        <time>2015-12-17T16:34:38Z</time>
      </trkpt>
      <trkpt lat="48.45075" lon="2.64103">
        <ele>140</ele>
        <time>2015-12-17T16:36:38Z</time>
      </trkpt>
      <trkpt lat="48.45057" lon="2.64131">
        <ele>141</ele>
        <time>2015-12-17T16:38:38Z</time>
      </trkpt>
      <trkpt lat="48.45029" lon="2.64163">
        <ele>142</ele>
        <time>2015-12-17T16:40:38Z</time>
      </trkpt>
      <trkpt lat="48.44991" lon="2.64216">
        <ele>142</ele>
        <time>2015-12-17T16:42:38Z</time>
      </trkpt>
      <trkpt lat="48.44978" lon="2.64241">
        <ele>142</ele>
        <time>2015-12-17T16:44:38Z</time>
      </trkpt>
      <trkpt lat="48.44953" lon="2.64281">
        <ele>141</ele>
        <time>2015-12-17T16:46:38Z</time>
      </trkpt>
      <trkpt lat="48.44941" lon="2.64299">
        <ele>141</ele>
        <time>2015-12-17T16:48:38Z</time>
      </trkpt>
      <trkpt lat="48.44934" lon="2.64312">
        <ele>140</ele>
        <time>2015-12-17T16:50:38Z</time>
      </trkpt>
      <trkpt lat="48.44928" lon="2.64339">
        <ele>140</ele>
        <time>2015-12-17T16:52:38Z</time>
      </trkpt>
      <trkpt lat="48.44935" lon="2.64368">
        <ele>140</ele>
        <time>2015-12-17T16:54:38Z</time>
      </trkpt>
      <trkpt lat="48.44939" lon="2.64371">
        <ele>141</ele>
        <time>2015-12-17T16:56:38Z</time>
      </trkpt>
      <trkpt lat="48.44956" lon="2.64405">
        <ele>143</ele>
        <time>2015-12-17T16:58:38Z</time>
      </trkpt>
      <trkpt lat="48.44956" lon="2.64443">
        <ele>142</ele>
        <time>2015-12-17T17:00:38Z</time>
      </trkpt>
      <trkpt lat="48.44954" lon="2.64482">
        <ele>141</ele>
        <time>2015-12-17T17:02:38Z</time>
      </trkpt>
      <trkpt lat="48.44958" lon="2.6454">
        <ele>140</ele>
        <time>2015-12-17T17:04:38Z</time>
      </trkpt>
      <trkpt lat="48.44959" lon="2.64567">
        <ele>140</ele>
        <time>2015-12-17T17:06:38Z</time>
      </trkpt>
      <trkpt lat="48.44953" lon="2.64599">
        <ele>140</ele>
        <time>2015-12-17T17:08:38Z</time>
      </trkpt>
      <trkpt lat="48.4495" lon="2.64645">
        <ele>141</ele>
        <time>2015-12-17T17:10:38Z</time>
      </trkpt>
      <trkpt lat="48.44948" lon="2.64667">
        <ele>142</ele>
        <time>2015-12-17T17:12:38Z</time>
      </trkpt>
      <trkpt lat="48.44944" lon="2.64659">
        <ele>142</ele>
        <time>2015-12-17T17:14:38Z</time>
      </trkpt>
      <trkpt lat="48.44941" lon="2.64654">
        <ele>141</ele>
        <time>2015-12-17T17:16:38Z</time>
      </trkpt>
      <trkpt lat="48.44924" lon="2.64633">
        <ele>138</ele>
        <time>2015-12-17T17:18:38Z</time>
      </trkpt>
      <trkpt lat="48.44906" lon="2.64594">
        <ele>134</ele>
        <time>2015-12-17T17:20:38Z</time>
      </trkpt>
      <trkpt lat="48.44898" lon="2.64565">
        <ele>132</ele>
        <time>2015-12-17T17:22:38Z</time>
      </trkpt>
      <trkpt lat="48.44885" lon="2.64522">
        <ele>131</ele>
        <time>2015-12-17T17:24:38Z</time>
      </trkpt>
      <trkpt lat="48.44873" lon="2.64518">
        <ele>130</ele>
        <time>2015-12-17T17:26:38Z</time>
      </trkpt>
      <trkpt lat="48.44862" lon="2.64542">
        <ele>128</ele>
        <time>2015-12-17T17:28:38Z</time>
      </trkpt>
      <trkpt lat="48.44838" lon="2.64569">
        <ele>126</ele>
        <time>2015-12-17T17:30:38Z</time>
      </trkpt>
      <trkpt lat="48.44818" lon="2.6457">
        <ele>124</ele>
        <time>2015-12-17T17:32:38Z</time>
      </trkpt>
      <trkpt lat="48.44808" lon="2.64551">
        <ele>122</ele>
        <time>2015-12-17T17:34:38Z</time>
      </trkpt>
      <trkpt lat="48.44804" lon="2.6453">
        <ele>122</ele>
        <time>2015-12-17T17:36:38Z</time>
      </trkpt>
      <trkpt lat="48.44788" lon="2.6452">
        <ele>119</ele>
        <time>2015-12-17T17:38:38Z</time>
      </trkpt>
      <trkpt lat="48.44783" lon="2.64521">
        <ele>119</ele>
        <time>2015-12-17T17:40:38Z</time>
      </trkpt>
      <trkpt lat="48.44754" lon="2.64509">
        <ele>114</ele>
        <time>2015-12-17T17:42:38Z</time>
      </trkpt>
      <trkpt lat="48.44748" lon="2.64505">
        <ele>113</ele>
        <time>2015-12-17T17:44:38Z</time>
      </trkpt>
      <trkpt lat="48.44722" lon="2.64489">
        <ele>111</ele>
        <time>2015-12-17T17:46:38Z</time>
      </trkpt>
      <trkpt lat="48.44699" lon="2.64468">
        <ele>109</ele>
        <time>2015-12-17T17:48:38Z</time>
      </trkpt>
      <trkpt lat="48.44666" lon="2.64461">
        <ele>106</ele>
        <time>2015-12-17T17:50:38Z</time>
      </trkpt>
      <trkpt lat="48.44658" lon="2.64462">
        <ele>105</ele>
        <time>2015-12-17T17:52:38Z</time>
      </trkpt>
      <trkpt lat="48.44634" lon="2.64438">
        <ele>104</ele>
        <time>2015-12-17T17:54:38Z</time>
      </trkpt>
      <trkpt lat="48.4464" lon="2.64425">
        <ele>104</ele>
        <time>2015-12-17T17:56:38Z</time>
      </trkpt>
      <trkpt lat="48.44649" lon="2.64408">
        <ele>104</ele>
        <time>2015-12-17T17:58:38Z</time>
      </trkpt>
      <trkpt lat="48.44646" lon="2.64375">
        <ele>105</ele>
        <time>2015-12-17T18:00:38Z</time>
      </trkpt>
      <trkpt lat="48.4463" lon="2.64369">
        <ele>104</ele>
        <time>2015-12-17T18:02:38Z</time>
      </trkpt>
      <trkpt lat="48.44621" lon="2.64367">
        <ele>104</ele>
        <time>2015-12-17T18:04:38Z</time>
      </trkpt>
      <trkpt lat="48.44602" lon="2.64374">
        <ele>102</ele>
        <time>2015-12-17T18:06:38Z</time>
      </trkpt>
      <trkpt lat="48.4457" lon="2.64375">
        <ele>101</ele>
        <time>2015-12-17T18:08:38Z</time>
      </trkpt>
      <trkpt lat="48.44564" lon="2.64374">
        <ele>100</ele>
        <time>2015-12-17T18:10:38Z</time>
      </trkpt>
      <trkpt lat="48.44545" lon="2.64356">
        <ele>100</ele>
        <time>2015-12-17T18:12:38Z</time>
      </trkpt>
      <trkpt lat="48.44543" lon="2.64341">
        <ele>100</ele>
        <time>2015-12-17T18:14:38Z</time>
      </trkpt>
      <trkpt lat="48.44543" lon="2.64308">
        <ele>100</ele>
        <time>2015-12-17T18:16:38Z</time>
      </trkpt>
      <trkpt lat="48.4454" lon="2.64266">
        <ele>99</ele>
        <time>2015-12-17T18:18:38Z</time>
      </trkpt>
      <trkpt lat="48.44543" lon="2.64253">
        <ele>100</ele>
        <time>2015-12-17T18:20:38Z</time>
      </trkpt>
      <trkpt lat="48.44546" lon="2.64218">
        <ele>99</ele>
        <time>2015-12-17T18:22:38Z</time>
      </trkpt>
      <trkpt lat="48.44544" lon="2.64194">
        <ele>98</ele>
        <time>2015-12-17T18:24:38Z</time>
      </trkpt>
      <trkpt lat="48.4455" lon="2.6415">
        <ele>98</ele>
        <time>2015-12-17T18:26:38Z</time>
      </trkpt>
      <trkpt lat="48.44552" lon="2.64135">
        <ele>98</ele>
        <time>2015-12-17T18:28:38Z</time>
      </trkpt>
      <trkpt lat="48.44556" lon="2.64121">
        <ele>98</ele>
        <time>2015-12-17T18:30:38Z</time>
      </trkpt>
      <trkpt lat="48.4457" lon="2.64069">
        <ele>98</ele>
        <time>2015-12-17T18:32:38Z</time>
      </trkpt>
      <trkpt lat="48.44578" lon="2.64026">
        <ele>97</ele>
        <time>2015-12-17T18:34:38Z</time>
      </trkpt>
      <trkpt lat="48.4458" lon="2.64008">
        <ele>96</ele>
        <time>2015-12-17T18:36:38Z</time>
      </trkpt>
      <trkpt lat="48.44596" lon="2.63935">
        <ele>95</ele>
        <time>2015-12-17T18:38:38Z</time>
      </trkpt>
      <trkpt lat="48.44606" lon="2.63879">
        <ele>93</ele>
        <time>2015-12-17T18:40:38Z</time>
      </trkpt>
      <trkpt lat="48.44615" lon="2.63838">
        <ele>93</ele>
        <time>2015-12-17T18:42:38Z</time>
      </trkpt>
      <trkpt lat="48.44616" lon="2.63831">
        <ele>93</ele>
        <time>2015-12-17T18:44:38Z</time>
      </trkpt>
      <trkpt lat="48.44612" lon="2.63794">
        <ele>91</ele>
        <time>2015-12-17T18:46:38Z</time>
      </trkpt>
      <trkpt lat="48.44603" lon="2.6376">
        <ele>90</ele>
        <time>2015-12-17T18:48:38Z</time>
      </trkpt>
      <trkpt lat="48.44602" lon="2.63755">
        <ele>89</ele>
        <time>2015-12-17T18:50:38Z</time>
      </trkpt>
      <trkpt lat="48.44585" lon="2.63742">
        <ele>88</ele>
        <time>2015-12-17T18:52:38Z</time>
      </trkpt>
      <trkpt lat="48.44557" lon="2.63751">
        <ele>89</ele>
        <time>2015-12-17T18:54:38Z</time>
      </trkpt>
      <trkpt lat="48.44532" lon="2.63743">
        <ele>90</ele>
        <time>2015-12-17T18:56:38Z</time>
      </trkpt>
      <trkpt lat="48.44532" lon="2.63737">
        <ele>90</ele>
        <time>2015-12-17T18:58:38Z</time>
      </trkpt>
      <trkpt lat="48.4454" lon="2.63743">
        <ele>90</ele>
        <time>2015-12-17T19:00:38Z</time>
      </trkpt>
      <trkpt lat="48.4454" lon="2.63722">
        <ele>90</ele>
        <time>2015-12-17T19:02:38Z</time>
      </trkpt>
      <trkpt lat="48.4454" lon="2.63692">
        <ele>90</ele>
        <time>2015-12-17T19:04:38Z</time>
      </trkpt>
      <trkpt lat="48.44543" lon="2.63674">
        <ele>89</ele>
        <time>2015-12-17T19:06:38Z</time>
      </trkpt>
      <trkpt lat="48.44551" lon="2.63659">
        <ele>89</ele>
        <time>2015-12-17T19:08:38Z</time>
      </trkpt>
      <trkpt lat="48.44555" lon="2.63624">
        <ele>88</ele>
        <time>2015-12-17T19:10:38Z</time>
      </trkpt>
      <trkpt lat="48.44558" lon="2.6358">
        <ele>88</ele>
        <time>2015-12-17T19:12:38Z</time>
      </trkpt>
      <trkpt lat="48.44562" lon="2.63534">
        <ele>87</ele>
        <time>2015-12-17T19:14:38Z</time>
      </trkpt>
      <trkpt lat="48.44564" lon="2.63505">
        <ele>87</ele>
        <time>2015-12-17T19:16:38Z</time>
      </trkpt>
      <trkpt lat="48.44563" lon="2.63484">
        <ele>87</ele>
        <time>2015-12-17T19:18:38Z</time>
      </trkpt>
      <trkpt lat="48.4457" lon="2.63429">
        <ele>87</ele>
        <time>2015-12-17T19:20:38Z</time>
      </trkpt>
      <trkpt lat="48.44573" lon="2.63405">
        <ele>87</ele>
        <time>2015-12-17T19:22:38Z</time>
      </trkpt>
      <trkpt lat="48.44576" lon="2.63362">
        <ele>87</ele>
        <time>2015-12-17T19:24:38Z</time>
      </trkpt>
      <trkpt lat="48.44588" lon="2.63239">
        <ele>86</ele>
        <time>2015-12-17T19:26:38Z</time>
      </trkpt>
      <trkpt lat="48.44593" lon="2.63191">
        <ele>86</ele>
        <time>2015-12-17T19:28:38Z</time>
      </trkpt>
      <trkpt lat="48.44593" lon="2.63145">
        <ele>86</ele>
        <time>2015-12-17T19:30:38Z</time>
      </trkpt>
      <trkpt lat="48.44606" lon="2.63087">
        <ele>86</ele>
        <time>2015-12-17T19:32:38Z</time>
      </trkpt>
      <trkpt lat="48.44622" lon="2.6305">
        <ele>86</ele>
        <time>2015-12-17T19:34:38Z</time>
      </trkpt>
      <trkpt lat="48.44641" lon="2.63035">
        <ele>87</ele>
        <time>2015-12-17T19:36:38Z</time>
      </trkpt>
      <trkpt lat="48.4466" lon="2.63026">
        <ele>88</ele>
        <time>2015-12-17T19:38:38Z</time>
      </trkpt>
      <trkpt lat="48.44676" lon="2.6301">
        <ele>89</ele>
        <time>2015-12-17T19:40:38Z</time>
      </trkpt>
      <trkpt lat="48.44691" lon="2.62983">
        <ele>89</ele>
        <time>2015-12-17T19:42:38Z</time>
      </trkpt>
      <trkpt lat="48.44699" lon="2.62948">
        <ele>89</ele>
        <time>2015-12-17T19:44:38Z</time>
      </trkpt>
      <trkpt lat="48.447" lon="2.62911">
        <ele>89</ele>
        <time>2015-12-17T19:46:38Z</time>
      </trkpt>
      <trkpt lat="48.44711" lon="2.62848">
        <ele>89</ele>
        <time>2015-12-17T19:48:38Z</time>
      </trkpt>
      <trkpt lat="48.44728" lon="2.62773">
        <ele>88</ele>
        <time>2015-12-17T19:50:38Z</time>
      </trkpt>
      <trkpt lat="48.4473" lon="2.62727">
        <ele>88</ele>
        <time>2015-12-17T19:52:38Z</time>
      </trkpt>
      <trkpt lat="48.44725" lon="2.62685">
        <ele>87</ele>
        <time>2015-12-17T19:54:38Z</time>
      </trkpt>
      <trkpt lat="48.4472" lon="2.62687">
        <ele>88</ele>
        <time>2015-12-17T19:56:38Z</time>
      </trkpt>
      <trkpt lat="48.44681" lon="2.6267">
        <ele>89</ele>
        <time>2015-12-17T19:58:38Z</time>
      </trkpt>
      <trkpt lat="48.44585" lon="2.62619">
        <ele>89</ele>
        <time>2015-12-17T20:00:38Z</time>
      </trkpt>
      <trkpt lat="48.44574" lon="2.62612">
        <ele>90</ele>
        <time>2015-12-17T20:02:38Z</time>
      </trkpt>
      <trkpt lat="48.44566" lon="2.62605">
        <ele>90</ele>
        <time>2015-12-17T20:04:38Z</time>
      </trkpt>
      <trkpt lat="48.44553" lon="2.62595">
        <ele>90</ele>
        <time>2015-12-17T20:06:38Z</time>
      </trkpt>
      <trkpt lat="48.44524" lon="2.62577">
        <ele>91</ele>
        <time>2015-12-17T20:08:38Z</time>
      </trkpt>
      <trkpt lat="48.44473" lon="2.62551">
        <ele>92</ele>
        <time>2015-12-17T20:10:38Z</time>
      </trkpt>
      <trkpt lat="48.44461" lon="2.62541">
        <ele>92</ele>
        <time>2015-12-17T20:12:38Z</time>
      </trkpt>
      <trkpt lat="48.4435" lon="2.62484">
        <ele>95</ele>
        <time>2015-12-17T20:14:38Z</time>
      </trkpt>
      <trkpt lat="48.44252" lon="2.62436">
        <ele>94</ele>
        <time>2015-12-17T20:16:38Z</time>
      </trkpt>
      <trkpt lat="48.44219" lon="2.62427">
        <ele>94</ele>
        <time>2015-12-17T20:18:38Z</time>
      </trkpt>
      <trkpt lat="48.44207" lon="2.62426">
        <ele>93</ele>
        <time>2015-12-17T20:20:38Z</time>
      </trkpt>
      <trkpt lat="48.44121" lon="2.62441">
        <ele>92</ele>
        <time>2015-12-17T20:22:38Z</time>
      </trkpt>
    </trkseg>
  </trk>
</gpx>